<?xml version="1.0" encoding="UTF-8" standalone="no" ?>
<gpx xmlns="http://www.topografix.com/GPX/1/1" xmlns:xsi="http://www.w3.org/2001/XMLSchema-instance" xsi:schemaLocation="http://www.topografix.com/GPX/1/1 http://www.topografix.com/GPX/1/1/gpx.xsd" version="1.1" creator="VisuGPX - https://www.visugpx.com">
  <metadata>
    <name>Viols-en-Laval - Domaine départemental de Roussières</name>
    <desc><![CDATA[2015-03 - Viols-en-Laval - Chemin des Drailles - Cazarils - Montagne de Labat - Paillas - Domaine départemental de Roussières

[b]album[/b] : [url]https://goo.gl/photos/WmggVWSxTgamMAYq7[/url]
[img]https://3.bp.blogspot.com/-BxlqTv1aZLE/WNTqD5yrCQI/AAAAAAAARWw/O-Pzkl3TUYkJZVybiLtzJOw80Bo9Sv1EQCLcB/s1600/2015-03_Viols-en-Laval_Cazarils_Montagne-de-Labat_photos_i.JPG[/img]
[b]Idées de randonnées dans la même région[/b]
Parcours : [url]https://www.visugpx.com/membres/24856/causses/garrigues-montpellier/[/url]
Photos : [url]https://jcvertygo.blogspot.com/p/nord-montpellier.html[/url]]]></desc>
  </metadata>
  <trk>
    <name><![CDATA[Viols-en-Laval - Domaine départemental de Roussières_1]]></name>
    <trkseg>
      <trkpt lat="43.75152" lon="3.72544">
        <ele>246.6</ele>
        <time>2015-03-21T09:58:53Z</time>
      </trkpt>
      <trkpt lat="43.75154" lon="3.72546">
        <ele>246.6</ele>
        <time>2015-03-21T09:58:58Z</time>
      </trkpt>
      <trkpt lat="43.75161" lon="3.72552">
        <ele>243.13374</ele>
        <time>2015-03-21T09:59:50Z</time>
      </trkpt>
      <trkpt lat="43.75162" lon="3.72555">
        <ele>243.13374</ele>
        <time>2015-03-21T10:00:00Z</time>
      </trkpt>
      <trkpt lat="43.75177" lon="3.72596">
        <ele>244.28004</ele>
        <time>2015-03-21T10:00:23Z</time>
      </trkpt>
      <trkpt lat="43.75184" lon="3.72603">
        <ele>244.28004</ele>
        <time>2015-03-21T10:00:36Z</time>
      </trkpt>
      <trkpt lat="43.75205" lon="3.72577">
        <ele>245.5596</ele>
        <time>2015-03-21T10:00:54Z</time>
      </trkpt>
      <trkpt lat="43.75213" lon="3.72577">
        <ele>245.5596</ele>
        <time>2015-03-21T10:01:09Z</time>
      </trkpt>
      <trkpt lat="43.75243" lon="3.7258">
        <ele>247.08302</ele>
        <time>2015-03-21T10:01:28Z</time>
      </trkpt>
      <trkpt lat="43.75247" lon="3.72581">
        <ele>247.08302</ele>
        <time>2015-03-21T10:01:37Z</time>
      </trkpt>
      <trkpt lat="43.75253" lon="3.72587">
        <ele>248.59157</ele>
        <time>2015-03-21T10:01:38Z</time>
      </trkpt>
      <trkpt lat="43.75263" lon="3.7259">
        <ele>249.91164</ele>
        <time>2015-03-21T10:01:53Z</time>
      </trkpt>
      <trkpt lat="43.75289" lon="3.72591">
        <ele>251.20923</ele>
        <time>2015-03-21T10:02:11Z</time>
      </trkpt>
      <trkpt lat="43.75301" lon="3.726">
        <ele>252.69856</ele>
        <time>2015-03-21T10:02:19Z</time>
      </trkpt>
      <trkpt lat="43.75306" lon="3.72602">
        <ele>252.69856</ele>
        <time>2015-03-21T10:02:19Z</time>
      </trkpt>
      <trkpt lat="43.75317" lon="3.72607">
        <ele>254.2859</ele>
        <time>2015-03-21T10:02:29Z</time>
      </trkpt>
      <trkpt lat="43.75387" lon="3.72634">
        <ele>255.7457</ele>
        <time>2015-03-21T10:03:28Z</time>
      </trkpt>
      <trkpt lat="43.75399" lon="3.72639">
        <ele>257.73373</ele>
        <time>2015-03-21T10:03:37Z</time>
      </trkpt>
      <trkpt lat="43.754" lon="3.7264">
        <ele>257.73373</ele>
        <time>2015-03-21T10:03:39Z</time>
      </trkpt>
      <trkpt lat="43.75436" lon="3.72652">
        <ele>259.27118</ele>
        <time>2015-03-21T10:04:11Z</time>
      </trkpt>
      <trkpt lat="43.7544" lon="3.72654">
        <ele>259.27118</ele>
        <time>2015-03-21T10:04:11Z</time>
      </trkpt>
      <trkpt lat="43.75459" lon="3.72664">
        <ele>260.19766</ele>
        <time>2015-03-21T10:04:28Z</time>
      </trkpt>
      <trkpt lat="43.75504" lon="3.72692">
        <ele>260.87515</ele>
        <time>2015-03-21T10:05:16Z</time>
      </trkpt>
      <trkpt lat="43.75505" lon="3.72697">
        <ele>260.87515</ele>
        <time>2015-03-21T10:05:18Z</time>
      </trkpt>
      <trkpt lat="43.75508" lon="3.72704">
        <ele>261.27338</ele>
        <time>2015-03-21T10:05:28Z</time>
      </trkpt>
      <trkpt lat="43.75508" lon="3.72709">
        <ele>261.27338</ele>
        <time>2015-03-21T10:05:41Z</time>
      </trkpt>
      <trkpt lat="43.75528" lon="3.72729">
        <ele>261.5003</ele>
        <time>2015-03-21T10:06:16Z</time>
      </trkpt>
      <trkpt lat="43.75533" lon="3.72747">
        <ele>261.03278</ele>
        <time>2015-03-21T10:06:28Z</time>
      </trkpt>
      <trkpt lat="43.75537" lon="3.72753">
        <ele>261.03278</ele>
        <time>2015-03-21T10:06:41Z</time>
      </trkpt>
      <trkpt lat="43.75545" lon="3.72762">
        <ele>260.52734</ele>
        <time>2015-03-21T10:06:50Z</time>
      </trkpt>
      <trkpt lat="43.75558" lon="3.72789">
        <ele>259.93866</ele>
        <time>2015-03-21T10:06:58Z</time>
      </trkpt>
      <trkpt lat="43.75578" lon="3.72834">
        <ele>258.9895</ele>
        <time>2015-03-21T10:07:32Z</time>
      </trkpt>
      <trkpt lat="43.75582" lon="3.72841">
        <ele>258.9895</ele>
        <time>2015-03-21T10:07:33Z</time>
      </trkpt>
      <trkpt lat="43.756" lon="3.72912">
        <ele>257.68506</ele>
        <time>2015-03-21T10:08:27Z</time>
      </trkpt>
      <trkpt lat="43.75601" lon="3.72921">
        <ele>257.68506</ele>
        <time>2015-03-21T10:08:28Z</time>
      </trkpt>
      <trkpt lat="43.75599" lon="3.72932">
        <ele>256.37915</ele>
        <time>2015-03-21T10:08:44Z</time>
      </trkpt>
      <trkpt lat="43.75593" lon="3.72982">
        <ele>255.21309</ele>
        <time>2015-03-21T10:09:11Z</time>
      </trkpt>
      <trkpt lat="43.75589" lon="3.72996">
        <ele>254.17517</ele>
        <time>2015-03-21T10:09:13Z</time>
      </trkpt>
      <trkpt lat="43.7559" lon="3.73023">
        <ele>253.16629</ele>
        <time>2015-03-21T10:09:28Z</time>
      </trkpt>
      <trkpt lat="43.7559" lon="3.73023">
        <ele>253.16629</ele>
        <time>2015-03-21T10:09:47Z</time>
      </trkpt>
      <trkpt lat="43.75579" lon="3.73111">
        <ele>253.07716</ele>
        <time>2015-03-21T10:10:32Z</time>
      </trkpt>
      <trkpt lat="43.75576" lon="3.73118">
        <ele>253.07716</ele>
        <time>2015-03-21T10:10:33Z</time>
      </trkpt>
      <trkpt lat="43.75579" lon="3.73134">
        <ele>253.14543</ele>
        <time>2015-03-21T10:11:09Z</time>
      </trkpt>
      <trkpt lat="43.75579" lon="3.73167">
        <ele>253.65228</ele>
        <time>2015-03-21T10:11:29Z</time>
      </trkpt>
      <trkpt lat="43.75578" lon="3.73171">
        <ele>253.65228</ele>
        <time>2015-03-21T10:11:39Z</time>
      </trkpt>
      <trkpt lat="43.7557" lon="3.73191">
        <ele>254.33308</ele>
        <time>2015-03-21T10:11:54Z</time>
      </trkpt>
      <trkpt lat="43.75568" lon="3.73216">
        <ele>255.07507</ele>
        <time>2015-03-21T10:12:16Z</time>
      </trkpt>
      <trkpt lat="43.75587" lon="3.73227">
        <ele>255.85928</ele>
        <time>2015-03-21T10:12:28Z</time>
      </trkpt>
      <trkpt lat="43.75601" lon="3.73234">
        <ele>256.55743</ele>
        <time>2015-03-21T10:13:15Z</time>
      </trkpt>
      <trkpt lat="43.7563" lon="3.73233">
        <ele>257.1756</ele>
        <time>2015-03-21T10:13:28Z</time>
      </trkpt>
      <trkpt lat="43.75636" lon="3.73234">
        <ele>257.1756</ele>
        <time>2015-03-21T10:13:41Z</time>
      </trkpt>
      <trkpt lat="43.7565" lon="3.73243">
        <ele>258.10828</ele>
        <time>2015-03-21T10:13:57Z</time>
      </trkpt>
      <trkpt lat="43.75651" lon="3.73244">
        <ele>258.10828</ele>
        <time>2015-03-21T10:14:00Z</time>
      </trkpt>
      <trkpt lat="43.75655" lon="3.73246">
        <ele>258.10828</ele>
        <time>2015-03-21T10:14:06Z</time>
      </trkpt>
      <trkpt lat="43.75672" lon="3.7328">
        <ele>258.9437</ele>
        <time>2015-03-21T10:14:28Z</time>
      </trkpt>
      <trkpt lat="43.75674" lon="3.73287">
        <ele>258.9437</ele>
        <time>2015-03-21T10:14:39Z</time>
      </trkpt>
      <trkpt lat="43.75698" lon="3.73307">
        <ele>259.5749</ele>
        <time>2015-03-21T10:15:14Z</time>
      </trkpt>
      <trkpt lat="43.75731" lon="3.7334">
        <ele>259.83032</ele>
        <time>2015-03-21T10:15:28Z</time>
      </trkpt>
      <trkpt lat="43.75738" lon="3.73346">
        <ele>259.83032</ele>
        <time>2015-03-21T10:15:42Z</time>
      </trkpt>
      <trkpt lat="43.75751" lon="3.73347">
        <ele>259.87375</ele>
        <time>2015-03-21T10:15:43Z</time>
      </trkpt>
      <trkpt lat="43.75764" lon="3.73348">
        <ele>259.861</ele>
        <time>2015-03-21T10:15:56Z</time>
      </trkpt>
      <trkpt lat="43.75767" lon="3.73346">
        <ele>259.861</ele>
        <time>2015-03-21T10:15:56Z</time>
      </trkpt>
      <trkpt lat="43.75787" lon="3.73316">
        <ele>259.39426</ele>
        <time>2015-03-21T10:16:21Z</time>
      </trkpt>
      <trkpt lat="43.75791" lon="3.73303">
        <ele>258.86426</ele>
        <time>2015-03-21T10:16:25Z</time>
      </trkpt>
      <trkpt lat="43.75793" lon="3.73298">
        <ele>258.86426</ele>
        <time>2015-03-21T10:16:28Z</time>
      </trkpt>
      <trkpt lat="43.75798" lon="3.73284">
        <ele>258.33685</ele>
        <time>2015-03-21T10:16:45Z</time>
      </trkpt>
      <trkpt lat="43.75799" lon="3.73257">
        <ele>257.47867</ele>
        <time>2015-03-21T10:16:53Z</time>
      </trkpt>
      <trkpt lat="43.75798" lon="3.73238">
        <ele>256.50677</ele>
        <time>2015-03-21T10:17:10Z</time>
      </trkpt>
      <trkpt lat="43.758" lon="3.73226">
        <ele>255.49365</ele>
        <time>2015-03-21T10:17:10Z</time>
      </trkpt>
      <trkpt lat="43.75803" lon="3.73211">
        <ele>254.59709</ele>
        <time>2015-03-21T10:17:24Z</time>
      </trkpt>
      <trkpt lat="43.75805" lon="3.73192">
        <ele>253.71039</ele>
        <time>2015-03-21T10:17:29Z</time>
      </trkpt>
      <trkpt lat="43.75816" lon="3.73155">
        <ele>252.98813</ele>
        <time>2015-03-21T10:17:54Z</time>
      </trkpt>
      <trkpt lat="43.75813" lon="3.7311">
        <ele>252.16743</ele>
        <time>2015-03-21T10:18:24Z</time>
      </trkpt>
      <trkpt lat="43.7581" lon="3.73103">
        <ele>252.16743</ele>
        <time>2015-03-21T10:18:29Z</time>
      </trkpt>
      <trkpt lat="43.75805" lon="3.73063">
        <ele>251.3049</ele>
        <time>2015-03-21T10:19:00Z</time>
      </trkpt>
      <trkpt lat="43.75803" lon="3.73006">
        <ele>250.27203</ele>
        <time>2015-03-21T10:19:23Z</time>
      </trkpt>
      <trkpt lat="43.75802" lon="3.72991">
        <ele>249.32784</ele>
        <time>2015-03-21T10:19:32Z</time>
      </trkpt>
      <trkpt lat="43.75802" lon="3.72988">
        <ele>249.32784</ele>
        <time>2015-03-21T10:19:33Z</time>
      </trkpt>
      <trkpt lat="43.75796" lon="3.72945">
        <ele>248.12238</ele>
        <time>2015-03-21T10:20:00Z</time>
      </trkpt>
      <trkpt lat="43.75787" lon="3.72903">
        <ele>247.13336</ele>
        <time>2015-03-21T10:20:27Z</time>
      </trkpt>
      <trkpt lat="43.75786" lon="3.72893">
        <ele>247.13336</ele>
        <time>2015-03-21T10:20:28Z</time>
      </trkpt>
      <trkpt lat="43.75785" lon="3.72887">
        <ele>246.257</ele>
        <time>2015-03-21T10:20:40Z</time>
      </trkpt>
      <trkpt lat="43.75778" lon="3.72871">
        <ele>245.50247</ele>
        <time>2015-03-21T10:20:50Z</time>
      </trkpt>
      <trkpt lat="43.75776" lon="3.72856">
        <ele>244.87741</ele>
        <time>2015-03-21T10:20:51Z</time>
      </trkpt>
      <trkpt lat="43.75775" lon="3.72821">
        <ele>244.49316</ele>
        <time>2015-03-21T10:21:11Z</time>
      </trkpt>
      <trkpt lat="43.75776" lon="3.72818">
        <ele>244.49316</ele>
        <time>2015-03-21T10:21:12Z</time>
      </trkpt>
      <trkpt lat="43.75776" lon="3.72816">
        <ele>244.49316</ele>
        <time>2015-03-21T10:21:16Z</time>
      </trkpt>
      <trkpt lat="43.75778" lon="3.72794">
        <ele>244.33112</ele>
        <time>2015-03-21T10:21:28Z</time>
      </trkpt>
      <trkpt lat="43.75776" lon="3.72795">
        <ele>244.33112</ele>
        <time>2015-03-21T10:21:37Z</time>
      </trkpt>
      <trkpt lat="43.7577" lon="3.72793">
        <ele>244.33112</ele>
        <time>2015-03-21T10:22:23Z</time>
      </trkpt>
      <trkpt lat="43.75767" lon="3.72791">
        <ele>244.65698</ele>
        <time>2015-03-21T10:22:28Z</time>
      </trkpt>
      <trkpt lat="43.7576" lon="3.7279">
        <ele>244.65698</ele>
        <time>2015-03-21T10:22:33Z</time>
      </trkpt>
      <trkpt lat="43.75755" lon="3.72789">
        <ele>245.01257</ele>
        <time>2015-03-21T10:22:38Z</time>
      </trkpt>
      <trkpt lat="43.75752" lon="3.72786">
        <ele>245.01257</ele>
        <time>2015-03-21T10:22:43Z</time>
      </trkpt>
      <trkpt lat="43.75748" lon="3.72784">
        <ele>245.01257</ele>
        <time>2015-03-21T10:22:48Z</time>
      </trkpt>
      <trkpt lat="43.75744" lon="3.72782">
        <ele>245.42386</ele>
        <time>2015-03-21T10:22:53Z</time>
      </trkpt>
      <trkpt lat="43.75738" lon="3.72782">
        <ele>245.42386</ele>
        <time>2015-03-21T10:22:58Z</time>
      </trkpt>
      <trkpt lat="43.75735" lon="3.72778">
        <ele>245.79593</ele>
        <time>2015-03-21T10:23:03Z</time>
      </trkpt>
      <trkpt lat="43.75725" lon="3.72779">
        <ele>246.17506</ele>
        <time>2015-03-21T10:23:13Z</time>
      </trkpt>
      <trkpt lat="43.75708" lon="3.72779">
        <ele>246.52992</ele>
        <time>2015-03-21T10:23:28Z</time>
      </trkpt>
      <trkpt lat="43.7568" lon="3.72774">
        <ele>247.1849</ele>
        <time>2015-03-21T10:23:53Z</time>
      </trkpt>
      <trkpt lat="43.75667" lon="3.72767">
        <ele>247.80557</ele>
        <time>2015-03-21T10:24:07Z</time>
      </trkpt>
      <trkpt lat="43.75666" lon="3.72766">
        <ele>247.80557</ele>
        <time>2015-03-21T10:24:17Z</time>
      </trkpt>
      <trkpt lat="43.75652" lon="3.72753">
        <ele>248.30492</ele>
        <time>2015-03-21T10:24:28Z</time>
      </trkpt>
      <trkpt lat="43.75603" lon="3.72748">
        <ele>248.6472</ele>
        <time>2015-03-21T10:25:17Z</time>
      </trkpt>
      <trkpt lat="43.75573" lon="3.72733">
        <ele>248.77074</ele>
        <time>2015-03-21T10:25:37Z</time>
      </trkpt>
      <trkpt lat="43.7557" lon="3.72731">
        <ele>248.77074</ele>
        <time>2015-03-21T10:25:38Z</time>
      </trkpt>
      <trkpt lat="43.75558" lon="3.72722">
        <ele>248.82321</ele>
        <time>2015-03-21T10:26:08Z</time>
      </trkpt>
      <trkpt lat="43.75536" lon="3.72698">
        <ele>248.78062</ele>
        <time>2015-03-21T10:26:28Z</time>
      </trkpt>
      <trkpt lat="43.75529" lon="3.72694">
        <ele>248.78062</ele>
        <time>2015-03-21T10:26:59Z</time>
      </trkpt>
      <trkpt lat="43.7552" lon="3.72696">
        <ele>248.46132</ele>
        <time>2015-03-21T10:27:28Z</time>
      </trkpt>
      <trkpt lat="43.75496" lon="3.72676">
        <ele>248.14821</ele>
        <time>2015-03-21T10:27:28Z</time>
      </trkpt>
      <trkpt lat="43.75479" lon="3.72667">
        <ele>247.88469</ele>
        <time>2015-03-21T10:27:45Z</time>
      </trkpt>
      <trkpt lat="43.75474" lon="3.72662">
        <ele>247.88469</ele>
        <time>2015-03-21T10:27:48Z</time>
      </trkpt>
      <trkpt lat="43.75474" lon="3.72661">
        <ele>247.88469</ele>
        <time>2015-03-21T10:27:53Z</time>
      </trkpt>
      <trkpt lat="43.75469" lon="3.72659">
        <ele>247.73962</ele>
        <time>2015-03-21T10:28:13Z</time>
      </trkpt>
      <trkpt lat="43.75463" lon="3.72656">
        <ele>247.73962</ele>
        <time>2015-03-21T10:28:18Z</time>
      </trkpt>
      <trkpt lat="43.75458" lon="3.72644">
        <ele>247.5883</ele>
        <time>2015-03-21T10:28:25Z</time>
      </trkpt>
      <trkpt lat="43.75458" lon="3.72637">
        <ele>247.5883</ele>
        <time>2015-03-21T10:28:31Z</time>
      </trkpt>
      <trkpt lat="43.75458" lon="3.72628">
        <ele>247.15662</ele>
        <time>2015-03-21T10:28:34Z</time>
      </trkpt>
      <trkpt lat="43.7546" lon="3.72599">
        <ele>246.68306</ele>
        <time>2015-03-21T10:29:00Z</time>
      </trkpt>
      <trkpt lat="43.75464" lon="3.72581">
        <ele>246.40256</ele>
        <time>2015-03-21T10:29:01Z</time>
      </trkpt>
      <trkpt lat="43.75464" lon="3.7257">
        <ele>246.40256</ele>
        <time>2015-03-21T10:29:08Z</time>
      </trkpt>
      <trkpt lat="43.75465" lon="3.72552">
        <ele>246.17114</ele>
        <time>2015-03-21T10:29:28Z</time>
      </trkpt>
      <trkpt lat="43.75465" lon="3.72526">
        <ele>246.20175</ele>
        <time>2015-03-21T10:29:33Z</time>
      </trkpt>
      <trkpt lat="43.75464" lon="3.72512">
        <ele>246.27249</ele>
        <time>2015-03-21T10:29:38Z</time>
      </trkpt>
      <trkpt lat="43.75473" lon="3.72429">
        <ele>246.49513</ele>
        <time>2015-03-21T10:30:28Z</time>
      </trkpt>
      <trkpt lat="43.75474" lon="3.72427">
        <ele>246.49513</ele>
        <time>2015-03-21T10:30:29Z</time>
      </trkpt>
      <trkpt lat="43.75473" lon="3.72387">
        <ele>246.90067</ele>
        <time>2015-03-21T10:30:53Z</time>
      </trkpt>
      <trkpt lat="43.75476" lon="3.72372">
        <ele>247.2145</ele>
        <time>2015-03-21T10:31:19Z</time>
      </trkpt>
      <trkpt lat="43.75477" lon="3.7233">
        <ele>247.32674</ele>
        <time>2015-03-21T10:31:28Z</time>
      </trkpt>
      <trkpt lat="43.75478" lon="3.7232">
        <ele>247.32674</ele>
        <time>2015-03-21T10:31:36Z</time>
      </trkpt>
      <trkpt lat="43.75477" lon="3.72311">
        <ele>247.36678</ele>
        <time>2015-03-21T10:31:44Z</time>
      </trkpt>
      <trkpt lat="43.7548" lon="3.72299">
        <ele>247.36678</ele>
        <time>2015-03-21T10:31:48Z</time>
      </trkpt>
      <trkpt lat="43.7548" lon="3.72285">
        <ele>247.48355</ele>
        <time>2015-03-21T10:31:58Z</time>
      </trkpt>
      <trkpt lat="43.75474" lon="3.72268">
        <ele>247.68507</ele>
        <time>2015-03-21T10:32:14Z</time>
      </trkpt>
      <trkpt lat="43.75455" lon="3.72246">
        <ele>247.21434</ele>
        <time>2015-03-21T10:32:30Z</time>
      </trkpt>
      <trkpt lat="43.75452" lon="3.72241">
        <ele>247.21434</ele>
        <time>2015-03-21T10:32:34Z</time>
      </trkpt>
      <trkpt lat="43.7545" lon="3.72228">
        <ele>246.51091</ele>
        <time>2015-03-21T10:32:41Z</time>
      </trkpt>
      <trkpt lat="43.7545" lon="3.72222">
        <ele>246.51091</ele>
        <time>2015-03-21T10:32:47Z</time>
      </trkpt>
      <trkpt lat="43.7545" lon="3.72215">
        <ele>245.80977</ele>
        <time>2015-03-21T10:32:51Z</time>
      </trkpt>
      <trkpt lat="43.7545" lon="3.72199">
        <ele>245.1556</ele>
        <time>2015-03-21T10:32:58Z</time>
      </trkpt>
      <trkpt lat="43.75447" lon="3.72193">
        <ele>245.1556</ele>
        <time>2015-03-21T10:33:03Z</time>
      </trkpt>
      <trkpt lat="43.75443" lon="3.72186">
        <ele>244.77711</ele>
        <time>2015-03-21T10:33:08Z</time>
      </trkpt>
      <trkpt lat="43.75439" lon="3.72181">
        <ele>244.77711</ele>
        <time>2015-03-21T10:33:13Z</time>
      </trkpt>
      <trkpt lat="43.75434" lon="3.72173">
        <ele>244.5971</ele>
        <time>2015-03-21T10:33:18Z</time>
      </trkpt>
      <trkpt lat="43.75429" lon="3.72164">
        <ele>244.5971</ele>
        <time>2015-03-21T10:33:28Z</time>
      </trkpt>
      <trkpt lat="43.75421" lon="3.7215">
        <ele>244.51454</ele>
        <time>2015-03-21T10:33:37Z</time>
      </trkpt>
      <trkpt lat="43.75419" lon="3.72146">
        <ele>244.51454</ele>
        <time>2015-03-21T10:33:38Z</time>
      </trkpt>
      <trkpt lat="43.7541" lon="3.72131">
        <ele>244.349</ele>
        <time>2015-03-21T10:33:56Z</time>
      </trkpt>
      <trkpt lat="43.75405" lon="3.7211">
        <ele>244.19316</ele>
        <time>2015-03-21T10:34:14Z</time>
      </trkpt>
      <trkpt lat="43.75407" lon="3.72072">
        <ele>243.68573</ele>
        <time>2015-03-21T10:34:28Z</time>
      </trkpt>
      <trkpt lat="43.75406" lon="3.72065">
        <ele>243.68573</ele>
        <time>2015-03-21T10:34:28Z</time>
      </trkpt>
      <trkpt lat="43.75394" lon="3.72001">
        <ele>242.868</ele>
        <time>2015-03-21T10:35:10Z</time>
      </trkpt>
      <trkpt lat="43.75397" lon="3.71986">
        <ele>242.06754</ele>
        <time>2015-03-21T10:35:28Z</time>
      </trkpt>
      <trkpt lat="43.75398" lon="3.71979">
        <ele>242.06754</ele>
        <time>2015-03-21T10:35:28Z</time>
      </trkpt>
      <trkpt lat="43.75402" lon="3.71969">
        <ele>241.40028</ele>
        <time>2015-03-21T10:35:33Z</time>
      </trkpt>
      <trkpt lat="43.75424" lon="3.71942">
        <ele>240.35304</ele>
        <time>2015-03-21T10:36:02Z</time>
      </trkpt>
      <trkpt lat="43.75443" lon="3.71929">
        <ele>239.33122</ele>
        <time>2015-03-21T10:36:26Z</time>
      </trkpt>
      <trkpt lat="43.75458" lon="3.71926">
        <ele>238.47955</ele>
        <time>2015-03-21T10:36:28Z</time>
      </trkpt>
      <trkpt lat="43.75468" lon="3.71922">
        <ele>237.78737</ele>
        <time>2015-03-21T10:36:43Z</time>
      </trkpt>
      <trkpt lat="43.75478" lon="3.71914">
        <ele>237.27312</ele>
        <time>2015-03-21T10:36:57Z</time>
      </trkpt>
      <trkpt lat="43.75488" lon="3.719">
        <ele>236.99666</ele>
        <time>2015-03-21T10:36:58Z</time>
      </trkpt>
      <trkpt lat="43.75499" lon="3.71882">
        <ele>236.73872</ele>
        <time>2015-03-21T10:37:17Z</time>
      </trkpt>
      <trkpt lat="43.755" lon="3.71881">
        <ele>236.73872</ele>
        <time>2015-03-21T10:37:18Z</time>
      </trkpt>
      <trkpt lat="43.75521" lon="3.71871">
        <ele>236.45476</ele>
        <time>2015-03-21T10:37:35Z</time>
      </trkpt>
      <trkpt lat="43.75523" lon="3.71869">
        <ele>236.45476</ele>
        <time>2015-03-21T10:37:44Z</time>
      </trkpt>
      <trkpt lat="43.75545" lon="3.71851">
        <ele>236.20444</ele>
        <time>2015-03-21T10:38:11Z</time>
      </trkpt>
      <trkpt lat="43.75555" lon="3.71836">
        <ele>235.942</ele>
        <time>2015-03-21T10:38:28Z</time>
      </trkpt>
      <trkpt lat="43.75564" lon="3.71826">
        <ele>235.75484</ele>
        <time>2015-03-21T10:38:33Z</time>
      </trkpt>
      <trkpt lat="43.75567" lon="3.71823">
        <ele>235.75484</ele>
        <time>2015-03-21T10:38:54Z</time>
      </trkpt>
      <trkpt lat="43.75586" lon="3.71813">
        <ele>235.53622</ele>
        <time>2015-03-21T10:39:07Z</time>
      </trkpt>
      <trkpt lat="43.75595" lon="3.71799">
        <ele>235.40361</ele>
        <time>2015-03-21T10:39:08Z</time>
      </trkpt>
      <trkpt lat="43.75596" lon="3.71799">
        <ele>235.40361</ele>
        <time>2015-03-21T10:39:13Z</time>
      </trkpt>
      <trkpt lat="43.75598" lon="3.71791">
        <ele>235.40361</ele>
        <time>2015-03-21T10:39:33Z</time>
      </trkpt>
      <trkpt lat="43.75602" lon="3.71788">
        <ele>235.32138</ele>
        <time>2015-03-21T10:39:38Z</time>
      </trkpt>
      <trkpt lat="43.75609" lon="3.71784">
        <ele>235.32138</ele>
        <time>2015-03-21T10:39:43Z</time>
      </trkpt>
      <trkpt lat="43.75613" lon="3.71779">
        <ele>235.1267</ele>
        <time>2015-03-21T10:39:48Z</time>
      </trkpt>
      <trkpt lat="43.75616" lon="3.71774">
        <ele>235.1267</ele>
        <time>2015-03-21T10:39:53Z</time>
      </trkpt>
      <trkpt lat="43.75617" lon="3.71772">
        <ele>235.1267</ele>
        <time>2015-03-21T10:39:58Z</time>
      </trkpt>
      <trkpt lat="43.75619" lon="3.7177">
        <ele>235.1267</ele>
        <time>2015-03-21T10:40:03Z</time>
      </trkpt>
      <trkpt lat="43.75621" lon="3.71766">
        <ele>235.08693</ele>
        <time>2015-03-21T10:40:11Z</time>
      </trkpt>
      <trkpt lat="43.75621" lon="3.71762">
        <ele>235.08693</ele>
        <time>2015-03-21T10:40:15Z</time>
      </trkpt>
      <trkpt lat="43.75624" lon="3.71755">
        <ele>235.08693</ele>
        <time>2015-03-21T10:40:20Z</time>
      </trkpt>
      <trkpt lat="43.75627" lon="3.71742">
        <ele>235.06024</ele>
        <time>2015-03-21T10:40:29Z</time>
      </trkpt>
      <trkpt lat="43.75622" lon="3.71732">
        <ele>235.06024</ele>
        <time>2015-03-21T10:40:37Z</time>
      </trkpt>
      <trkpt lat="43.75621" lon="3.71731">
        <ele>235.0593</ele>
        <time>2015-03-21T10:40:40Z</time>
      </trkpt>
      <trkpt lat="43.75588" lon="3.71692">
        <ele>235.05249</ele>
        <time>2015-03-21T10:41:28Z</time>
      </trkpt>
      <trkpt lat="43.75587" lon="3.71684">
        <ele>235.05249</ele>
        <time>2015-03-21T10:41:28Z</time>
      </trkpt>
      <trkpt lat="43.75587" lon="3.71676">
        <ele>235.12585</ele>
        <time>2015-03-21T10:41:33Z</time>
      </trkpt>
      <trkpt lat="43.75587" lon="3.7167">
        <ele>235.12585</ele>
        <time>2015-03-21T10:41:38Z</time>
      </trkpt>
      <trkpt lat="43.75584" lon="3.71664">
        <ele>235.25804</ele>
        <time>2015-03-21T10:41:46Z</time>
      </trkpt>
      <trkpt lat="43.75584" lon="3.71659">
        <ele>235.25804</ele>
        <time>2015-03-21T10:41:48Z</time>
      </trkpt>
      <trkpt lat="43.7558" lon="3.71655">
        <ele>235.25804</ele>
        <time>2015-03-21T10:41:53Z</time>
      </trkpt>
      <trkpt lat="43.75577" lon="3.71649">
        <ele>235.48668</ele>
        <time>2015-03-21T10:41:58Z</time>
      </trkpt>
      <trkpt lat="43.75576" lon="3.71647">
        <ele>235.48668</ele>
        <time>2015-03-21T10:42:03Z</time>
      </trkpt>
      <trkpt lat="43.75573" lon="3.71645">
        <ele>235.48668</ele>
        <time>2015-03-21T10:42:09Z</time>
      </trkpt>
      <trkpt lat="43.75573" lon="3.71643">
        <ele>235.48668</ele>
        <time>2015-03-21T10:42:13Z</time>
      </trkpt>
      <trkpt lat="43.75575" lon="3.71634">
        <ele>236.13467</ele>
        <time>2015-03-21T10:42:28Z</time>
      </trkpt>
      <trkpt lat="43.75577" lon="3.71629">
        <ele>236.13467</ele>
        <time>2015-03-21T10:42:33Z</time>
      </trkpt>
      <trkpt lat="43.75578" lon="3.71621">
        <ele>236.7794</ele>
        <time>2015-03-21T10:42:38Z</time>
      </trkpt>
      <trkpt lat="43.75578" lon="3.71617">
        <ele>236.7794</ele>
        <time>2015-03-21T10:42:43Z</time>
      </trkpt>
      <trkpt lat="43.75578" lon="3.7161">
        <ele>236.7794</ele>
        <time>2015-03-21T10:42:48Z</time>
      </trkpt>
      <trkpt lat="43.75581" lon="3.716">
        <ele>237.46172</ele>
        <time>2015-03-21T10:42:56Z</time>
      </trkpt>
      <trkpt lat="43.75582" lon="3.71596">
        <ele>237.46172</ele>
        <time>2015-03-21T10:43:00Z</time>
      </trkpt>
      <trkpt lat="43.756" lon="3.7158">
        <ele>238.47876</ele>
        <time>2015-03-21T10:43:18Z</time>
      </trkpt>
      <trkpt lat="43.75609" lon="3.71572">
        <ele>239.55734</ele>
        <time>2015-03-21T10:43:28Z</time>
      </trkpt>
      <trkpt lat="43.75613" lon="3.71568">
        <ele>239.55734</ele>
        <time>2015-03-21T10:43:37Z</time>
      </trkpt>
      <trkpt lat="43.75633" lon="3.71542">
        <ele>240.70358</ele>
        <time>2015-03-21T10:43:53Z</time>
      </trkpt>
      <trkpt lat="43.75641" lon="3.71533">
        <ele>241.80771</ele>
        <time>2015-03-21T10:44:03Z</time>
      </trkpt>
      <trkpt lat="43.75646" lon="3.71525">
        <ele>241.80771</ele>
        <time>2015-03-21T10:44:08Z</time>
      </trkpt>
      <trkpt lat="43.75646" lon="3.71525">
        <ele>241.80771</ele>
        <time>2015-03-21T10:44:13Z</time>
      </trkpt>
      <trkpt lat="43.75649" lon="3.71515">
        <ele>243.27264</ele>
        <time>2015-03-21T10:44:43Z</time>
      </trkpt>
      <trkpt lat="43.75649" lon="3.71507">
        <ele>243.27264</ele>
        <time>2015-03-21T10:44:48Z</time>
      </trkpt>
      <trkpt lat="43.75649" lon="3.71498">
        <ele>244.40425</ele>
        <time>2015-03-21T10:44:55Z</time>
      </trkpt>
      <trkpt lat="43.75651" lon="3.71492">
        <ele>244.40425</ele>
        <time>2015-03-21T10:45:06Z</time>
      </trkpt>
      <trkpt lat="43.75658" lon="3.71459">
        <ele>244.4884</ele>
        <time>2015-03-21T10:45:18Z</time>
      </trkpt>
      <trkpt lat="43.7566" lon="3.71449">
        <ele>244.4884</ele>
        <time>2015-03-21T10:45:25Z</time>
      </trkpt>
      <trkpt lat="43.75658" lon="3.71444">
        <ele>244.35074</ele>
        <time>2015-03-21T10:45:29Z</time>
      </trkpt>
      <trkpt lat="43.75657" lon="3.71443">
        <ele>244.35074</ele>
        <time>2015-03-21T10:45:33Z</time>
      </trkpt>
      <trkpt lat="43.75655" lon="3.7144">
        <ele>244.35074</ele>
        <time>2015-03-21T10:45:38Z</time>
      </trkpt>
      <trkpt lat="43.75651" lon="3.71434">
        <ele>244.23817</ele>
        <time>2015-03-21T10:45:43Z</time>
      </trkpt>
      <trkpt lat="43.75646" lon="3.71432">
        <ele>244.23817</ele>
        <time>2015-03-21T10:45:48Z</time>
      </trkpt>
      <trkpt lat="43.75642" lon="3.71428">
        <ele>244.13449</ele>
        <time>2015-03-21T10:46:00Z</time>
      </trkpt>
      <trkpt lat="43.75637" lon="3.71424">
        <ele>244.13449</ele>
        <time>2015-03-21T10:46:00Z</time>
      </trkpt>
      <trkpt lat="43.75636" lon="3.71423">
        <ele>244.13449</ele>
        <time>2015-03-21T10:46:04Z</time>
      </trkpt>
      <trkpt lat="43.7562" lon="3.71408">
        <ele>244.09676</ele>
        <time>2015-03-21T10:46:25Z</time>
      </trkpt>
      <trkpt lat="43.75611" lon="3.71401">
        <ele>243.94713</ele>
        <time>2015-03-21T10:46:29Z</time>
      </trkpt>
      <trkpt lat="43.75586" lon="3.71389">
        <ele>243.60765</ele>
        <time>2015-03-21T10:46:53Z</time>
      </trkpt>
      <trkpt lat="43.75563" lon="3.71367">
        <ele>243.29495</ele>
        <time>2015-03-21T10:47:20Z</time>
      </trkpt>
      <trkpt lat="43.75557" lon="3.71357">
        <ele>242.93584</ele>
        <time>2015-03-21T10:47:29Z</time>
      </trkpt>
      <trkpt lat="43.75552" lon="3.7135">
        <ele>242.93584</ele>
        <time>2015-03-21T10:47:33Z</time>
      </trkpt>
      <trkpt lat="43.75551" lon="3.71346">
        <ele>242.53476</ele>
        <time>2015-03-21T10:47:38Z</time>
      </trkpt>
      <trkpt lat="43.75538" lon="3.71338">
        <ele>242.1392</ele>
        <time>2015-03-21T10:47:49Z</time>
      </trkpt>
      <trkpt lat="43.75515" lon="3.71312">
        <ele>241.67789</ele>
        <time>2015-03-21T10:48:21Z</time>
      </trkpt>
      <trkpt lat="43.75509" lon="3.71305">
        <ele>241.67789</ele>
        <time>2015-03-21T10:48:24Z</time>
      </trkpt>
      <trkpt lat="43.75501" lon="3.71297">
        <ele>240.65263</ele>
        <time>2015-03-21T10:48:33Z</time>
      </trkpt>
      <trkpt lat="43.75501" lon="3.7129">
        <ele>240.65263</ele>
        <time>2015-03-21T10:48:47Z</time>
      </trkpt>
      <trkpt lat="43.75502" lon="3.71278">
        <ele>239.28079</ele>
        <time>2015-03-21T10:48:56Z</time>
      </trkpt>
      <trkpt lat="43.75529" lon="3.71173">
        <ele>236.77031</ele>
        <time>2015-03-21T10:50:14Z</time>
      </trkpt>
      <trkpt lat="43.75555" lon="3.7115">
        <ele>234.30722</ele>
        <time>2015-03-21T10:50:28Z</time>
      </trkpt>
      <trkpt lat="43.75553" lon="3.71148">
        <ele>234.30722</ele>
        <time>2015-03-21T10:50:33Z</time>
      </trkpt>
      <trkpt lat="43.75553" lon="3.71143">
        <ele>234.30722</ele>
        <time>2015-03-21T10:50:45Z</time>
      </trkpt>
      <trkpt lat="43.75576" lon="3.71078">
        <ele>231.99593</ele>
        <time>2015-03-21T10:51:28Z</time>
      </trkpt>
      <trkpt lat="43.7558" lon="3.71075">
        <ele>231.99593</ele>
        <time>2015-03-21T10:51:38Z</time>
      </trkpt>
      <trkpt lat="43.75579" lon="3.71057">
        <ele>230.03352</ele>
        <time>2015-03-21T10:51:50Z</time>
      </trkpt>
      <trkpt lat="43.75582" lon="3.7104">
        <ele>228.52953</ele>
        <time>2015-03-21T10:52:00Z</time>
      </trkpt>
      <trkpt lat="43.75581" lon="3.71027">
        <ele>227.55525</ele>
        <time>2015-03-21T10:52:10Z</time>
      </trkpt>
      <trkpt lat="43.75582" lon="3.71009">
        <ele>227.49225</ele>
        <time>2015-03-21T10:52:13Z</time>
      </trkpt>
      <trkpt lat="43.75585" lon="3.71006">
        <ele>227.49225</ele>
        <time>2015-03-21T10:52:18Z</time>
      </trkpt>
      <trkpt lat="43.75589" lon="3.71002">
        <ele>227.49225</ele>
        <time>2015-03-21T10:52:23Z</time>
      </trkpt>
      <trkpt lat="43.75594" lon="3.70997">
        <ele>228.02849</ele>
        <time>2015-03-21T10:52:28Z</time>
      </trkpt>
      <trkpt lat="43.75597" lon="3.70992">
        <ele>228.02849</ele>
        <time>2015-03-21T10:52:33Z</time>
      </trkpt>
      <trkpt lat="43.75621" lon="3.70975">
        <ele>229.08925</ele>
        <time>2015-03-21T10:52:57Z</time>
      </trkpt>
      <trkpt lat="43.75622" lon="3.70974">
        <ele>229.08925</ele>
        <time>2015-03-21T10:52:59Z</time>
      </trkpt>
      <trkpt lat="43.7564" lon="3.70948">
        <ele>230.79115</ele>
        <time>2015-03-21T10:53:19Z</time>
      </trkpt>
      <trkpt lat="43.75637" lon="3.70943">
        <ele>230.79115</ele>
        <time>2015-03-21T10:53:23Z</time>
      </trkpt>
      <trkpt lat="43.75633" lon="3.70939">
        <ele>232.70718</ele>
        <time>2015-03-21T10:53:28Z</time>
      </trkpt>
      <trkpt lat="43.75629" lon="3.70936">
        <ele>232.70718</ele>
        <time>2015-03-21T10:53:33Z</time>
      </trkpt>
      <trkpt lat="43.75624" lon="3.70934">
        <ele>234.93102</ele>
        <time>2015-03-21T10:53:40Z</time>
      </trkpt>
      <trkpt lat="43.75622" lon="3.70934">
        <ele>234.93102</ele>
        <time>2015-03-21T10:53:49Z</time>
      </trkpt>
      <trkpt lat="43.756" lon="3.70919">
        <ele>237.63509</ele>
        <time>2015-03-21T10:54:04Z</time>
      </trkpt>
      <trkpt lat="43.75595" lon="3.70908">
        <ele>240.2284</ele>
        <time>2015-03-21T10:54:10Z</time>
      </trkpt>
      <trkpt lat="43.75597" lon="3.70902">
        <ele>240.2284</ele>
        <time>2015-03-21T10:54:22Z</time>
      </trkpt>
      <trkpt lat="43.75599" lon="3.70886">
        <ele>242.69696</ele>
        <time>2015-03-21T10:54:26Z</time>
      </trkpt>
      <trkpt lat="43.75601" lon="3.70881">
        <ele>242.69696</ele>
        <time>2015-03-21T10:54:30Z</time>
      </trkpt>
      <trkpt lat="43.75602" lon="3.7088">
        <ele>242.69696</ele>
        <time>2015-03-21T10:54:38Z</time>
      </trkpt>
      <trkpt lat="43.75611" lon="3.70814">
        <ele>244.91293</ele>
        <time>2015-03-21T10:55:22Z</time>
      </trkpt>
      <trkpt lat="43.75611" lon="3.70802">
        <ele>244.91293</ele>
        <time>2015-03-21T10:55:25Z</time>
      </trkpt>
      <trkpt lat="43.75608" lon="3.70795">
        <ele>247.24857</ele>
        <time>2015-03-21T10:55:30Z</time>
      </trkpt>
      <trkpt lat="43.75604" lon="3.70796">
        <ele>247.24857</ele>
        <time>2015-03-21T10:55:35Z</time>
      </trkpt>
      <trkpt lat="43.75604" lon="3.70796">
        <ele>247.24857</ele>
        <time>2015-03-21T10:55:39Z</time>
      </trkpt>
      <trkpt lat="43.75596" lon="3.708">
        <ele>249.83243</ele>
        <time>2015-03-21T10:55:49Z</time>
      </trkpt>
      <trkpt lat="43.75592" lon="3.7081">
        <ele>249.83243</ele>
        <time>2015-03-21T10:56:00Z</time>
      </trkpt>
      <trkpt lat="43.75593" lon="3.70806">
        <ele>252.19214</ele>
        <time>2015-03-21T10:57:11Z</time>
      </trkpt>
      <trkpt lat="43.75555" lon="3.7078">
        <ele>254.36633</ele>
        <time>2015-03-21T10:58:09Z</time>
      </trkpt>
      <trkpt lat="43.75543" lon="3.70778">
        <ele>256.52115</ele>
        <time>2015-03-21T10:58:38Z</time>
      </trkpt>
      <trkpt lat="43.75555" lon="3.7077">
        <ele>258.3496</ele>
        <time>2015-03-21T10:59:24Z</time>
      </trkpt>
      <trkpt lat="43.75562" lon="3.70764">
        <ele>258.3496</ele>
        <time>2015-03-21T10:59:31Z</time>
      </trkpt>
      <trkpt lat="43.75564" lon="3.70763">
        <ele>259.95737</ele>
        <time>2015-03-21T10:59:33Z</time>
      </trkpt>
      <trkpt lat="43.75567" lon="3.70758">
        <ele>259.95737</ele>
        <time>2015-03-21T10:59:41Z</time>
      </trkpt>
      <trkpt lat="43.75567" lon="3.70752">
        <ele>261.35663</ele>
        <time>2015-03-21T10:59:43Z</time>
      </trkpt>
      <trkpt lat="43.75569" lon="3.70744">
        <ele>261.35663</ele>
        <time>2015-03-21T10:59:48Z</time>
      </trkpt>
      <trkpt lat="43.75576" lon="3.7073">
        <ele>262.54507</ele>
        <time>2015-03-21T10:59:59Z</time>
      </trkpt>
      <trkpt lat="43.75577" lon="3.70729">
        <ele>262.54507</ele>
        <time>2015-03-21T10:59:59Z</time>
      </trkpt>
      <trkpt lat="43.75585" lon="3.70679">
        <ele>263.723</ele>
        <time>2015-03-21T11:00:35Z</time>
      </trkpt>
      <trkpt lat="43.75585" lon="3.70678">
        <ele>263.723</ele>
        <time>2015-03-21T11:00:38Z</time>
      </trkpt>
      <trkpt lat="43.75582" lon="3.70678">
        <ele>263.723</ele>
        <time>2015-03-21T11:00:48Z</time>
      </trkpt>
      <trkpt lat="43.75582" lon="3.70677">
        <ele>263.723</ele>
        <time>2015-03-21T11:00:53Z</time>
      </trkpt>
      <trkpt lat="43.75584" lon="3.7068">
        <ele>263.723</ele>
        <time>2015-03-21T11:00:58Z</time>
      </trkpt>
      <trkpt lat="43.75584" lon="3.70686">
        <ele>264.70145</ele>
        <time>2015-03-21T11:01:05Z</time>
      </trkpt>
      <trkpt lat="43.75584" lon="3.70691">
        <ele>264.70145</ele>
        <time>2015-03-21T11:01:15Z</time>
      </trkpt>
      <trkpt lat="43.75568" lon="3.70695">
        <ele>265.45023</ele>
        <time>2015-03-21T11:01:31Z</time>
      </trkpt>
      <trkpt lat="43.75568" lon="3.70696">
        <ele>265.45023</ele>
        <time>2015-03-21T11:01:33Z</time>
      </trkpt>
      <trkpt lat="43.75565" lon="3.70696">
        <ele>265.45023</ele>
        <time>2015-03-21T11:01:41Z</time>
      </trkpt>
      <trkpt lat="43.75565" lon="3.70696">
        <ele>265.45023</ele>
        <time>2015-03-21T11:01:43Z</time>
      </trkpt>
      <trkpt lat="43.75565" lon="3.70696">
        <ele>265.45023</ele>
        <time>2015-03-21T11:01:53Z</time>
      </trkpt>
      <trkpt lat="43.75565" lon="3.70693">
        <ele>265.45023</ele>
        <time>2015-03-21T11:01:58Z</time>
      </trkpt>
      <trkpt lat="43.75565" lon="3.70693">
        <ele>265.45023</ele>
        <time>2015-03-21T11:02:03Z</time>
      </trkpt>
      <trkpt lat="43.7556" lon="3.70694">
        <ele>266.24466</ele>
        <time>2015-03-21T11:02:08Z</time>
      </trkpt>
      <trkpt lat="43.75556" lon="3.70695">
        <ele>266.24466</ele>
        <time>2015-03-21T11:02:15Z</time>
      </trkpt>
      <trkpt lat="43.75553" lon="3.70695">
        <ele>266.24466</ele>
        <time>2015-03-21T11:02:28Z</time>
      </trkpt>
      <trkpt lat="43.75549" lon="3.707">
        <ele>266.92206</ele>
        <time>2015-03-21T11:02:33Z</time>
      </trkpt>
      <trkpt lat="43.7554" lon="3.70707">
        <ele>267.47614</ele>
        <time>2015-03-21T11:03:13Z</time>
      </trkpt>
      <trkpt lat="43.75535" lon="3.70704">
        <ele>267.47614</ele>
        <time>2015-03-21T11:03:13Z</time>
      </trkpt>
      <trkpt lat="43.75528" lon="3.70702">
        <ele>267.9592</ele>
        <time>2015-03-21T11:03:39Z</time>
      </trkpt>
      <trkpt lat="43.75523" lon="3.70707">
        <ele>267.9592</ele>
        <time>2015-03-21T11:04:04Z</time>
      </trkpt>
      <trkpt lat="43.75513" lon="3.70704">
        <ele>268.3912</ele>
        <time>2015-03-21T11:04:30Z</time>
      </trkpt>
      <trkpt lat="43.75513" lon="3.70701">
        <ele>268.3912</ele>
        <time>2015-03-21T11:04:33Z</time>
      </trkpt>
      <trkpt lat="43.75514" lon="3.70701">
        <ele>268.3912</ele>
        <time>2015-03-21T11:04:38Z</time>
      </trkpt>
      <trkpt lat="43.75515" lon="3.70696">
        <ele>268.3912</ele>
        <time>2015-03-21T11:04:43Z</time>
      </trkpt>
      <trkpt lat="43.75515" lon="3.70689">
        <ele>268.67557</ele>
        <time>2015-03-21T11:04:50Z</time>
      </trkpt>
      <trkpt lat="43.75517" lon="3.70685">
        <ele>268.67557</ele>
        <time>2015-03-21T11:05:00Z</time>
      </trkpt>
      <trkpt lat="43.75517" lon="3.70678">
        <ele>268.67557</ele>
        <time>2015-03-21T11:05:08Z</time>
      </trkpt>
      <trkpt lat="43.75518" lon="3.70678">
        <ele>268.86743</ele>
        <time>2015-03-21T11:05:13Z</time>
      </trkpt>
      <trkpt lat="43.75522" lon="3.70676">
        <ele>268.86743</ele>
        <time>2015-03-21T11:05:28Z</time>
      </trkpt>
      <trkpt lat="43.75522" lon="3.70672">
        <ele>268.86743</ele>
        <time>2015-03-21T11:05:33Z</time>
      </trkpt>
      <trkpt lat="43.75522" lon="3.70668">
        <ele>268.96057</ele>
        <time>2015-03-21T11:05:38Z</time>
      </trkpt>
      <trkpt lat="43.75522" lon="3.70668">
        <ele>268.96057</ele>
        <time>2015-03-21T11:05:45Z</time>
      </trkpt>
      <trkpt lat="43.75523" lon="3.70659">
        <ele>268.96057</ele>
        <time>2015-03-21T11:05:59Z</time>
      </trkpt>
      <trkpt lat="43.75521" lon="3.70656">
        <ele>268.97836</ele>
        <time>2015-03-21T11:06:08Z</time>
      </trkpt>
      <trkpt lat="43.75519" lon="3.70654">
        <ele>268.97836</ele>
        <time>2015-03-21T11:06:22Z</time>
      </trkpt>
      <trkpt lat="43.75516" lon="3.70651">
        <ele>268.97836</ele>
        <time>2015-03-21T11:06:58Z</time>
      </trkpt>
      <trkpt lat="43.75556" lon="3.7067">
        <ele>268.94278</ele>
        <time>2015-03-21T11:08:33Z</time>
      </trkpt>
      <trkpt lat="43.75559" lon="3.70673">
        <ele>268.94278</ele>
        <time>2015-03-21T11:08:38Z</time>
      </trkpt>
      <trkpt lat="43.75559" lon="3.70673">
        <ele>268.94278</ele>
        <time>2015-03-21T11:08:43Z</time>
      </trkpt>
      <trkpt lat="43.75559" lon="3.70673">
        <ele>268.94278</ele>
        <time>2015-03-21T11:08:48Z</time>
      </trkpt>
      <trkpt lat="43.75562" lon="3.70673">
        <ele>268.94278</ele>
        <time>2015-03-21T11:09:00Z</time>
      </trkpt>
      <trkpt lat="43.75564" lon="3.70675">
        <ele>268.98962</ele>
        <time>2015-03-21T11:09:03Z</time>
      </trkpt>
      <trkpt lat="43.75565" lon="3.70676">
        <ele>268.98962</ele>
        <time>2015-03-21T11:09:08Z</time>
      </trkpt>
      <trkpt lat="43.7557" lon="3.70677">
        <ele>268.98962</ele>
        <time>2015-03-21T11:09:23Z</time>
      </trkpt>
      <trkpt lat="43.75574" lon="3.70678">
        <ele>269.086</ele>
        <time>2015-03-21T11:09:28Z</time>
      </trkpt>
      <trkpt lat="43.75584" lon="3.70678">
        <ele>269.10043</ele>
        <time>2015-03-21T11:09:33Z</time>
      </trkpt>
      <trkpt lat="43.75591" lon="3.70678">
        <ele>269.10043</ele>
        <time>2015-03-21T11:09:39Z</time>
      </trkpt>
      <trkpt lat="43.75597" lon="3.70679">
        <ele>268.9835</ele>
        <time>2015-03-21T11:09:43Z</time>
      </trkpt>
      <trkpt lat="43.75624" lon="3.70684">
        <ele>268.99228</ele>
        <time>2015-03-21T11:10:08Z</time>
      </trkpt>
      <trkpt lat="43.75644" lon="3.70691">
        <ele>269.19177</ele>
        <time>2015-03-21T11:10:30Z</time>
      </trkpt>
      <trkpt lat="43.75649" lon="3.70694">
        <ele>269.19177</ele>
        <time>2015-03-21T11:10:35Z</time>
      </trkpt>
      <trkpt lat="43.75656" lon="3.70698">
        <ele>269.584</ele>
        <time>2015-03-21T11:10:46Z</time>
      </trkpt>
      <trkpt lat="43.75694" lon="3.70694">
        <ele>270.05502</ele>
        <time>2015-03-21T11:11:31Z</time>
      </trkpt>
      <trkpt lat="43.75695" lon="3.70694">
        <ele>270.05502</ele>
        <time>2015-03-21T11:11:33Z</time>
      </trkpt>
      <trkpt lat="43.75705" lon="3.7069">
        <ele>270.34048</ele>
        <time>2015-03-21T11:11:44Z</time>
      </trkpt>
      <trkpt lat="43.75707" lon="3.70691">
        <ele>270.34048</ele>
        <time>2015-03-21T11:11:57Z</time>
      </trkpt>
      <trkpt lat="43.75711" lon="3.70691">
        <ele>270.34048</ele>
        <time>2015-03-21T11:11:57Z</time>
      </trkpt>
      <trkpt lat="43.75717" lon="3.70685">
        <ele>270.68594</ele>
        <time>2015-03-21T11:12:14Z</time>
      </trkpt>
      <trkpt lat="43.75745" lon="3.70664">
        <ele>270.9152</ele>
        <time>2015-03-21T11:12:29Z</time>
      </trkpt>
      <trkpt lat="43.75746" lon="3.70664">
        <ele>270.9152</ele>
        <time>2015-03-21T11:12:30Z</time>
      </trkpt>
      <trkpt lat="43.7577" lon="3.70644">
        <ele>271.03827</ele>
        <time>2015-03-21T11:13:03Z</time>
      </trkpt>
      <trkpt lat="43.75776" lon="3.7064">
        <ele>271.03827</ele>
        <time>2015-03-21T11:13:22Z</time>
      </trkpt>
      <trkpt lat="43.75782" lon="3.70628">
        <ele>270.43063</ele>
        <time>2015-03-21T11:13:35Z</time>
      </trkpt>
      <trkpt lat="43.75789" lon="3.70619">
        <ele>269.7838</ele>
        <time>2015-03-21T11:13:46Z</time>
      </trkpt>
      <trkpt lat="43.75793" lon="3.70615">
        <ele>269.7838</ele>
        <time>2015-03-21T11:13:53Z</time>
      </trkpt>
      <trkpt lat="43.75796" lon="3.70614">
        <ele>269.7838</ele>
        <time>2015-03-21T11:13:53Z</time>
      </trkpt>
      <trkpt lat="43.75819" lon="3.70614">
        <ele>269.01804</ele>
        <time>2015-03-21T11:14:23Z</time>
      </trkpt>
      <trkpt lat="43.75826" lon="3.70613">
        <ele>269.01804</ele>
        <time>2015-03-21T11:14:23Z</time>
      </trkpt>
      <trkpt lat="43.75832" lon="3.70614">
        <ele>268.24707</ele>
        <time>2015-03-21T11:14:29Z</time>
      </trkpt>
      <trkpt lat="43.75835" lon="3.70615">
        <ele>268.24707</ele>
        <time>2015-03-21T11:14:33Z</time>
      </trkpt>
      <trkpt lat="43.76532" lon="3.70175">
        <ele>291.96454</ele>
        <time>2015-03-21T11:31:58Z</time>
      </trkpt>
      <trkpt lat="43.76536" lon="3.70172">
        <ele>291.96454</ele>
        <time>2015-03-21T11:32:03Z</time>
      </trkpt>
      <trkpt lat="43.7654" lon="3.70171">
        <ele>293.47635</ele>
        <time>2015-03-21T11:32:08Z</time>
      </trkpt>
      <trkpt lat="43.76541" lon="3.70171">
        <ele>293.47635</ele>
        <time>2015-03-21T11:32:13Z</time>
      </trkpt>
      <trkpt lat="43.76548" lon="3.70164">
        <ele>294.56256</ele>
        <time>2015-03-21T11:32:23Z</time>
      </trkpt>
      <trkpt lat="43.76555" lon="3.70161">
        <ele>294.56256</ele>
        <time>2015-03-21T11:32:29Z</time>
      </trkpt>
      <trkpt lat="43.7656" lon="3.7016">
        <ele>295.9091</ele>
        <time>2015-03-21T11:32:33Z</time>
      </trkpt>
      <trkpt lat="43.76566" lon="3.70158">
        <ele>295.9091</ele>
        <time>2015-03-21T11:32:38Z</time>
      </trkpt>
      <trkpt lat="43.76578" lon="3.70151">
        <ele>297.09247</ele>
        <time>2015-03-21T11:32:46Z</time>
      </trkpt>
      <trkpt lat="43.7658" lon="3.70149">
        <ele>297.09247</ele>
        <time>2015-03-21T11:32:48Z</time>
      </trkpt>
      <trkpt lat="43.76588" lon="3.70147">
        <ele>298.04236</ele>
        <time>2015-03-21T11:32:53Z</time>
      </trkpt>
      <trkpt lat="43.766" lon="3.70146">
        <ele>298.91827</ele>
        <time>2015-03-21T11:33:01Z</time>
      </trkpt>
      <trkpt lat="43.76603" lon="3.70146">
        <ele>298.91827</ele>
        <time>2015-03-21T11:33:09Z</time>
      </trkpt>
      <trkpt lat="43.76627" lon="3.70176">
        <ele>300.01572</ele>
        <time>2015-03-21T11:33:35Z</time>
      </trkpt>
      <trkpt lat="43.76633" lon="3.70188">
        <ele>301.13074</ele>
        <time>2015-03-21T11:33:47Z</time>
      </trkpt>
      <trkpt lat="43.76633" lon="3.7019">
        <ele>301.13074</ele>
        <time>2015-03-21T11:33:51Z</time>
      </trkpt>
      <trkpt lat="43.76642" lon="3.70203">
        <ele>302.13556</ele>
        <time>2015-03-21T11:34:13Z</time>
      </trkpt>
      <trkpt lat="43.76674" lon="3.70226">
        <ele>302.59897</ele>
        <time>2015-03-21T11:34:45Z</time>
      </trkpt>
      <trkpt lat="43.76676" lon="3.70231">
        <ele>302.59897</ele>
        <time>2015-03-21T11:34:50Z</time>
      </trkpt>
      <trkpt lat="43.76677" lon="3.70231">
        <ele>302.59897</ele>
        <time>2015-03-21T11:34:53Z</time>
      </trkpt>
      <trkpt lat="43.76677" lon="3.7024">
        <ele>302.7705</ele>
        <time>2015-03-21T11:35:03Z</time>
      </trkpt>
      <trkpt lat="43.76681" lon="3.70247">
        <ele>302.7705</ele>
        <time>2015-03-21T11:35:08Z</time>
      </trkpt>
      <trkpt lat="43.76683" lon="3.70254">
        <ele>302.7049</ele>
        <time>2015-03-21T11:35:13Z</time>
      </trkpt>
      <trkpt lat="43.76687" lon="3.70265">
        <ele>302.7049</ele>
        <time>2015-03-21T11:35:26Z</time>
      </trkpt>
      <trkpt lat="43.76705" lon="3.70292">
        <ele>302.1254</ele>
        <time>2015-03-21T11:35:43Z</time>
      </trkpt>
      <trkpt lat="43.76707" lon="3.70299">
        <ele>302.1254</ele>
        <time>2015-03-21T11:35:48Z</time>
      </trkpt>
      <trkpt lat="43.76726" lon="3.70389">
        <ele>300.7875</ele>
        <time>2015-03-21T11:36:44Z</time>
      </trkpt>
      <trkpt lat="43.76732" lon="3.70395">
        <ele>300.7875</ele>
        <time>2015-03-21T11:36:53Z</time>
      </trkpt>
      <trkpt lat="43.76732" lon="3.70397">
        <ele>300.7875</ele>
        <time>2015-03-21T11:36:54Z</time>
      </trkpt>
      <trkpt lat="43.76761" lon="3.70431">
        <ele>299.38745</ele>
        <time>2015-03-21T11:37:46Z</time>
      </trkpt>
      <trkpt lat="43.76764" lon="3.70432">
        <ele>299.38745</ele>
        <time>2015-03-21T11:37:51Z</time>
      </trkpt>
      <trkpt lat="43.76771" lon="3.70434">
        <ele>298.17004</ele>
        <time>2015-03-21T11:38:00Z</time>
      </trkpt>
      <trkpt lat="43.76799" lon="3.70442">
        <ele>297.29688</ele>
        <time>2015-03-21T11:38:20Z</time>
      </trkpt>
      <trkpt lat="43.76825" lon="3.70452">
        <ele>296.87024</ele>
        <time>2015-03-21T11:38:47Z</time>
      </trkpt>
      <trkpt lat="43.76826" lon="3.70452">
        <ele>296.87024</ele>
        <time>2015-03-21T11:38:48Z</time>
      </trkpt>
      <trkpt lat="43.7693" lon="3.70459">
        <ele>299.65503</ele>
        <time>2015-03-21T11:40:49Z</time>
      </trkpt>
      <trkpt lat="43.76959" lon="3.70457">
        <ele>302.81696</ele>
        <time>2015-03-21T11:41:20Z</time>
      </trkpt>
      <trkpt lat="43.76979" lon="3.70453">
        <ele>306.25833</ele>
        <time>2015-03-21T11:41:34Z</time>
      </trkpt>
      <trkpt lat="43.76993" lon="3.70444">
        <ele>309.79022</ele>
        <time>2015-03-21T11:41:47Z</time>
      </trkpt>
      <trkpt lat="43.76994" lon="3.70445">
        <ele>309.79022</ele>
        <time>2015-03-21T11:41:48Z</time>
      </trkpt>
      <trkpt lat="43.77023" lon="3.70423">
        <ele>314.431</ele>
        <time>2015-03-21T11:42:46Z</time>
      </trkpt>
      <trkpt lat="43.77031" lon="3.70415">
        <ele>318.65576</ele>
        <time>2015-03-21T11:42:48Z</time>
      </trkpt>
      <trkpt lat="43.77035" lon="3.70408">
        <ele>318.65576</ele>
        <time>2015-03-21T11:42:53Z</time>
      </trkpt>
      <trkpt lat="43.77041" lon="3.70406">
        <ele>322.28897</ele>
        <time>2015-03-21T11:42:58Z</time>
      </trkpt>
      <trkpt lat="43.77046" lon="3.70403">
        <ele>322.28897</ele>
        <time>2015-03-21T11:43:03Z</time>
      </trkpt>
      <trkpt lat="43.77051" lon="3.70401">
        <ele>325.64474</ele>
        <time>2015-03-21T11:43:08Z</time>
      </trkpt>
      <trkpt lat="43.77055" lon="3.704">
        <ele>325.64474</ele>
        <time>2015-03-21T11:43:13Z</time>
      </trkpt>
      <trkpt lat="43.77059" lon="3.704">
        <ele>325.64474</ele>
        <time>2015-03-21T11:43:20Z</time>
      </trkpt>
      <trkpt lat="43.77078" lon="3.70371">
        <ele>329.2987</ele>
        <time>2015-03-21T11:43:43Z</time>
      </trkpt>
      <trkpt lat="43.7709" lon="3.70344">
        <ele>333.01147</ele>
        <time>2015-03-21T11:44:10Z</time>
      </trkpt>
      <trkpt lat="43.77129" lon="3.70327">
        <ele>337.2361</ele>
        <time>2015-03-21T11:44:48Z</time>
      </trkpt>
      <trkpt lat="43.7714" lon="3.70322">
        <ele>341.02512</ele>
        <time>2015-03-21T11:45:03Z</time>
      </trkpt>
      <trkpt lat="43.77146" lon="3.70319">
        <ele>341.02512</ele>
        <time>2015-03-21T11:45:03Z</time>
      </trkpt>
      <trkpt lat="43.77161" lon="3.70323">
        <ele>343.45187</ele>
        <time>2015-03-21T11:45:24Z</time>
      </trkpt>
      <trkpt lat="43.77167" lon="3.70329">
        <ele>343.45187</ele>
        <time>2015-03-21T11:45:32Z</time>
      </trkpt>
      <trkpt lat="43.77168" lon="3.7033">
        <ele>343.45187</ele>
        <time>2015-03-21T11:45:36Z</time>
      </trkpt>
      <trkpt lat="43.7717" lon="3.7033">
        <ele>345.3482</ele>
        <time>2015-03-21T11:45:45Z</time>
      </trkpt>
      <trkpt lat="43.77185" lon="3.70332">
        <ele>346.8589</ele>
        <time>2015-03-21T11:45:53Z</time>
      </trkpt>
      <trkpt lat="43.7719" lon="3.70332">
        <ele>346.8589</ele>
        <time>2015-03-21T11:45:57Z</time>
      </trkpt>
      <trkpt lat="43.77195" lon="3.70334">
        <ele>348.04865</ele>
        <time>2015-03-21T11:46:00Z</time>
      </trkpt>
      <trkpt lat="43.77203" lon="3.70325">
        <ele>348.89426</ele>
        <time>2015-03-21T11:46:13Z</time>
      </trkpt>
      <trkpt lat="43.77205" lon="3.70317">
        <ele>348.89426</ele>
        <time>2015-03-21T11:46:25Z</time>
      </trkpt>
      <trkpt lat="43.77211" lon="3.70296">
        <ele>349.61386</ele>
        <time>2015-03-21T11:46:31Z</time>
      </trkpt>
      <trkpt lat="43.77213" lon="3.70293">
        <ele>349.61386</ele>
        <time>2015-03-21T11:46:33Z</time>
      </trkpt>
      <trkpt lat="43.77218" lon="3.70289">
        <ele>350.3016</ele>
        <time>2015-03-21T11:46:43Z</time>
      </trkpt>
      <trkpt lat="43.77225" lon="3.70285">
        <ele>350.3016</ele>
        <time>2015-03-21T11:46:54Z</time>
      </trkpt>
      <trkpt lat="43.77229" lon="3.70283">
        <ele>350.9621</ele>
        <time>2015-03-21T11:46:54Z</time>
      </trkpt>
      <trkpt lat="43.77247" lon="3.7026">
        <ele>351.47128</ele>
        <time>2015-03-21T11:47:22Z</time>
      </trkpt>
      <trkpt lat="43.77248" lon="3.70258">
        <ele>351.47128</ele>
        <time>2015-03-21T11:47:23Z</time>
      </trkpt>
      <trkpt lat="43.77264" lon="3.70215">
        <ele>351.8427</ele>
        <time>2015-03-21T11:47:48Z</time>
      </trkpt>
      <trkpt lat="43.77276" lon="3.70203">
        <ele>352.04672</ele>
        <time>2015-03-21T11:48:00Z</time>
      </trkpt>
      <trkpt lat="43.77303" lon="3.7018">
        <ele>352.37885</ele>
        <time>2015-03-21T11:48:32Z</time>
      </trkpt>
      <trkpt lat="43.77306" lon="3.70178">
        <ele>352.37885</ele>
        <time>2015-03-21T11:48:33Z</time>
      </trkpt>
      <trkpt lat="43.77309" lon="3.70174">
        <ele>352.37885</ele>
        <time>2015-03-21T11:48:38Z</time>
      </trkpt>
      <trkpt lat="43.7731" lon="3.70173">
        <ele>352.37885</ele>
        <time>2015-03-21T11:48:43Z</time>
      </trkpt>
      <trkpt lat="43.77313" lon="3.70171">
        <ele>352.4992</ele>
        <time>2015-03-21T11:48:48Z</time>
      </trkpt>
      <trkpt lat="43.77315" lon="3.70169">
        <ele>352.4992</ele>
        <time>2015-03-21T11:48:53Z</time>
      </trkpt>
      <trkpt lat="43.77316" lon="3.70167">
        <ele>352.4992</ele>
        <time>2015-03-21T11:48:58Z</time>
      </trkpt>
      <trkpt lat="43.77318" lon="3.70164">
        <ele>352.4992</ele>
        <time>2015-03-21T11:49:03Z</time>
      </trkpt>
      <trkpt lat="43.77322" lon="3.70161">
        <ele>352.3397</ele>
        <time>2015-03-21T11:49:08Z</time>
      </trkpt>
      <trkpt lat="43.77327" lon="3.70158">
        <ele>352.3397</ele>
        <time>2015-03-21T11:49:19Z</time>
      </trkpt>
      <trkpt lat="43.77335" lon="3.70153">
        <ele>352.12076</ele>
        <time>2015-03-21T11:49:20Z</time>
      </trkpt>
      <trkpt lat="43.77348" lon="3.70149">
        <ele>351.79565</ele>
        <time>2015-03-21T11:49:38Z</time>
      </trkpt>
      <trkpt lat="43.77353" lon="3.70147">
        <ele>351.79565</ele>
        <time>2015-03-21T11:49:38Z</time>
      </trkpt>
      <trkpt lat="43.77356" lon="3.70146">
        <ele>351.79565</ele>
        <time>2015-03-21T11:49:47Z</time>
      </trkpt>
      <trkpt lat="43.77403" lon="3.70131">
        <ele>349.86517</ele>
        <time>2015-03-21T11:50:48Z</time>
      </trkpt>
      <trkpt lat="43.77415" lon="3.70124">
        <ele>347.6148</ele>
        <time>2015-03-21T11:51:06Z</time>
      </trkpt>
      <trkpt lat="43.7743" lon="3.70107">
        <ele>344.99374</ele>
        <time>2015-03-21T11:51:16Z</time>
      </trkpt>
      <trkpt lat="43.77431" lon="3.70105">
        <ele>344.99374</ele>
        <time>2015-03-21T11:51:19Z</time>
      </trkpt>
      <trkpt lat="43.77442" lon="3.70054">
        <ele>342.0314</ele>
        <time>2015-03-21T11:51:53Z</time>
      </trkpt>
      <trkpt lat="43.77443" lon="3.70054">
        <ele>342.0314</ele>
        <time>2015-03-21T11:51:55Z</time>
      </trkpt>
      <trkpt lat="43.77463" lon="3.70009">
        <ele>338.8768</ele>
        <time>2015-03-21T11:52:51Z</time>
      </trkpt>
      <trkpt lat="43.77465" lon="3.70007">
        <ele>338.8768</ele>
        <time>2015-03-21T11:52:59Z</time>
      </trkpt>
      <trkpt lat="43.77476" lon="3.7">
        <ele>335.89432</ele>
        <time>2015-03-21T11:53:18Z</time>
      </trkpt>
      <trkpt lat="43.77503" lon="3.69982">
        <ele>333.0261</ele>
        <time>2015-03-21T11:53:43Z</time>
      </trkpt>
      <trkpt lat="43.77531" lon="3.69965">
        <ele>330.44324</ele>
        <time>2015-03-21T11:53:48Z</time>
      </trkpt>
      <trkpt lat="43.77546" lon="3.69958">
        <ele>328.0603</ele>
        <time>2015-03-21T11:54:00Z</time>
      </trkpt>
      <trkpt lat="43.77547" lon="3.69957">
        <ele>328.0603</ele>
        <time>2015-03-21T11:54:01Z</time>
      </trkpt>
      <trkpt lat="43.77586" lon="3.69921">
        <ele>326.0374</ele>
        <time>2015-03-21T11:54:45Z</time>
      </trkpt>
      <trkpt lat="43.77587" lon="3.69914">
        <ele>326.0374</ele>
        <time>2015-03-21T11:55:03Z</time>
      </trkpt>
      <trkpt lat="43.77589" lon="3.69906">
        <ele>323.7547</ele>
        <time>2015-03-21T11:55:08Z</time>
      </trkpt>
      <trkpt lat="43.7759" lon="3.69899">
        <ele>323.7547</ele>
        <time>2015-03-21T11:55:13Z</time>
      </trkpt>
      <trkpt lat="43.7759" lon="3.69889">
        <ele>321.66174</ele>
        <time>2015-03-21T11:55:18Z</time>
      </trkpt>
      <trkpt lat="43.77589" lon="3.6988">
        <ele>321.66174</ele>
        <time>2015-03-21T11:55:25Z</time>
      </trkpt>
      <trkpt lat="43.77589" lon="3.69876">
        <ele>319.69162</ele>
        <time>2015-03-21T11:55:34Z</time>
      </trkpt>
      <trkpt lat="43.7759" lon="3.69841">
        <ele>317.6631</ele>
        <time>2015-03-21T11:55:47Z</time>
      </trkpt>
      <trkpt lat="43.77591" lon="3.69838">
        <ele>317.6631</ele>
        <time>2015-03-21T11:55:48Z</time>
      </trkpt>
      <trkpt lat="43.77589" lon="3.69822">
        <ele>315.82602</ele>
        <time>2015-03-21T11:56:02Z</time>
      </trkpt>
      <trkpt lat="43.77588" lon="3.69817">
        <ele>315.82602</ele>
        <time>2015-03-21T11:56:02Z</time>
      </trkpt>
      <trkpt lat="43.77587" lon="3.69808">
        <ele>314.28973</ele>
        <time>2015-03-21T11:56:07Z</time>
      </trkpt>
      <trkpt lat="43.77596" lon="3.69787">
        <ele>313.0646</ele>
        <time>2015-03-21T11:56:22Z</time>
      </trkpt>
      <trkpt lat="43.77596" lon="3.69783">
        <ele>313.0646</ele>
        <time>2015-03-21T11:56:31Z</time>
      </trkpt>
      <trkpt lat="43.77598" lon="3.69742">
        <ele>312.1591</ele>
        <time>2015-03-21T11:56:48Z</time>
      </trkpt>
      <trkpt lat="43.77599" lon="3.69734">
        <ele>312.1591</ele>
        <time>2015-03-21T11:57:00Z</time>
      </trkpt>
      <trkpt lat="43.7762" lon="3.69691">
        <ele>311.78592</ele>
        <time>2015-03-21T11:57:31Z</time>
      </trkpt>
      <trkpt lat="43.77628" lon="3.6965">
        <ele>311.9185</ele>
        <time>2015-03-21T11:57:48Z</time>
      </trkpt>
      <trkpt lat="43.77628" lon="3.6964">
        <ele>311.9185</ele>
        <time>2015-03-21T11:58:04Z</time>
      </trkpt>
      <trkpt lat="43.77638" lon="3.69624">
        <ele>312.38467</ele>
        <time>2015-03-21T11:58:17Z</time>
      </trkpt>
      <trkpt lat="43.77648" lon="3.69593">
        <ele>313.01086</ele>
        <time>2015-03-21T11:58:39Z</time>
      </trkpt>
      <trkpt lat="43.77651" lon="3.69574">
        <ele>313.57886</ele>
        <time>2015-03-21T11:58:40Z</time>
      </trkpt>
      <trkpt lat="43.77651" lon="3.69573">
        <ele>313.57886</ele>
        <time>2015-03-21T11:58:41Z</time>
      </trkpt>
      <trkpt lat="43.77655" lon="3.69561">
        <ele>314.13562</ele>
        <time>2015-03-21T11:58:48Z</time>
      </trkpt>
      <trkpt lat="43.7766" lon="3.69548">
        <ele>314.76785</ele>
        <time>2015-03-21T11:59:05Z</time>
      </trkpt>
      <trkpt lat="43.77661" lon="3.69538">
        <ele>314.76785</ele>
        <time>2015-03-21T11:59:06Z</time>
      </trkpt>
      <trkpt lat="43.77663" lon="3.69525">
        <ele>315.72925</ele>
        <time>2015-03-21T11:59:14Z</time>
      </trkpt>
      <trkpt lat="43.7767" lon="3.6951">
        <ele>316.77408</ele>
        <time>2015-03-21T11:59:26Z</time>
      </trkpt>
      <trkpt lat="43.77671" lon="3.69502">
        <ele>316.77408</ele>
        <time>2015-03-21T11:59:30Z</time>
      </trkpt>
      <trkpt lat="43.77679" lon="3.69475">
        <ele>318.00867</ele>
        <time>2015-03-21T11:59:48Z</time>
      </trkpt>
      <trkpt lat="43.77683" lon="3.6947">
        <ele>318.00867</ele>
        <time>2015-03-21T11:59:53Z</time>
      </trkpt>
      <trkpt lat="43.77715" lon="3.69425">
        <ele>320.02267</ele>
        <time>2015-03-21T12:00:33Z</time>
      </trkpt>
      <trkpt lat="43.77722" lon="3.69405">
        <ele>322.1291</ele>
        <time>2015-03-21T12:00:47Z</time>
      </trkpt>
      <trkpt lat="43.77722" lon="3.69404">
        <ele>322.1291</ele>
        <time>2015-03-21T12:00:48Z</time>
      </trkpt>
      <trkpt lat="43.77722" lon="3.69389">
        <ele>324.17026</ele>
        <time>2015-03-21T12:00:59Z</time>
      </trkpt>
      <trkpt lat="43.77731" lon="3.69359">
        <ele>326.5348</ele>
        <time>2015-03-21T12:01:17Z</time>
      </trkpt>
      <trkpt lat="43.77732" lon="3.69357">
        <ele>326.5348</ele>
        <time>2015-03-21T12:01:18Z</time>
      </trkpt>
      <trkpt lat="43.77747" lon="3.69313">
        <ele>329.1192</ele>
        <time>2015-03-21T12:01:48Z</time>
      </trkpt>
      <trkpt lat="43.77751" lon="3.69301">
        <ele>331.58182</ele>
        <time>2015-03-21T12:01:59Z</time>
      </trkpt>
      <trkpt lat="43.77754" lon="3.69294">
        <ele>331.58182</ele>
        <time>2015-03-21T12:02:00Z</time>
      </trkpt>
      <trkpt lat="43.77765" lon="3.69255">
        <ele>334.18387</ele>
        <time>2015-03-21T12:02:35Z</time>
      </trkpt>
      <trkpt lat="43.77771" lon="3.69229">
        <ele>336.6187</ele>
        <time>2015-03-21T12:02:47Z</time>
      </trkpt>
      <trkpt lat="43.77773" lon="3.69224">
        <ele>336.6187</ele>
        <time>2015-03-21T12:02:48Z</time>
      </trkpt>
      <trkpt lat="43.77776" lon="3.69211">
        <ele>339.03546</ele>
        <time>2015-03-21T12:02:56Z</time>
      </trkpt>
      <trkpt lat="43.77779" lon="3.69199">
        <ele>341.37042</ele>
        <time>2015-03-21T12:03:04Z</time>
      </trkpt>
      <trkpt lat="43.77781" lon="3.69175">
        <ele>343.69473</ele>
        <time>2015-03-21T12:03:26Z</time>
      </trkpt>
      <trkpt lat="43.77785" lon="3.69144">
        <ele>346.01657</ele>
        <time>2015-03-21T12:03:47Z</time>
      </trkpt>
      <trkpt lat="43.77784" lon="3.69137">
        <ele>346.01657</ele>
        <time>2015-03-21T12:03:48Z</time>
      </trkpt>
      <trkpt lat="43.77787" lon="3.69115">
        <ele>348.2717</ele>
        <time>2015-03-21T12:04:07Z</time>
      </trkpt>
      <trkpt lat="43.77788" lon="3.69103">
        <ele>348.2717</ele>
        <time>2015-03-21T12:04:19Z</time>
      </trkpt>
      <trkpt lat="43.7779" lon="3.69079">
        <ele>350.6747</ele>
        <time>2015-03-21T12:04:34Z</time>
      </trkpt>
      <trkpt lat="43.77789" lon="3.69058">
        <ele>353.1071</ele>
        <time>2015-03-21T12:04:42Z</time>
      </trkpt>
      <trkpt lat="43.77788" lon="3.69057">
        <ele>353.1071</ele>
        <time>2015-03-21T12:04:45Z</time>
      </trkpt>
      <trkpt lat="43.77786" lon="3.69047">
        <ele>353.1071</ele>
        <time>2015-03-21T12:04:50Z</time>
      </trkpt>
      <trkpt lat="43.77785" lon="3.6904">
        <ele>355.48782</ele>
        <time>2015-03-21T12:04:57Z</time>
      </trkpt>
      <trkpt lat="43.77784" lon="3.69034">
        <ele>355.48782</ele>
        <time>2015-03-21T12:05:04Z</time>
      </trkpt>
      <trkpt lat="43.77784" lon="3.69014">
        <ele>357.82874</ele>
        <time>2015-03-21T12:05:19Z</time>
      </trkpt>
      <trkpt lat="43.77787" lon="3.68983">
        <ele>360.1122</ele>
        <time>2015-03-21T12:05:37Z</time>
      </trkpt>
      <trkpt lat="43.7779" lon="3.68959">
        <ele>362.23575</ele>
        <time>2015-03-21T12:05:49Z</time>
      </trkpt>
      <trkpt lat="43.7779" lon="3.68955">
        <ele>362.23575</ele>
        <time>2015-03-21T12:05:59Z</time>
      </trkpt>
      <trkpt lat="43.77792" lon="3.68945">
        <ele>364.24918</ele>
        <time>2015-03-21T12:05:59Z</time>
      </trkpt>
      <trkpt lat="43.77796" lon="3.68941">
        <ele>364.24918</ele>
        <time>2015-03-21T12:06:09Z</time>
      </trkpt>
      <trkpt lat="43.778" lon="3.68935">
        <ele>366.156</ele>
        <time>2015-03-21T12:06:10Z</time>
      </trkpt>
      <trkpt lat="43.77806" lon="3.68926">
        <ele>366.156</ele>
        <time>2015-03-21T12:06:28Z</time>
      </trkpt>
      <trkpt lat="43.77814" lon="3.68897">
        <ele>368.10413</ele>
        <time>2015-03-21T12:06:40Z</time>
      </trkpt>
      <trkpt lat="43.77815" lon="3.68892">
        <ele>368.10413</ele>
        <time>2015-03-21T12:06:47Z</time>
      </trkpt>
      <trkpt lat="43.77819" lon="3.68879">
        <ele>369.8845</ele>
        <time>2015-03-21T12:06:48Z</time>
      </trkpt>
      <trkpt lat="43.77824" lon="3.68858">
        <ele>371.6503</ele>
        <time>2015-03-21T12:07:05Z</time>
      </trkpt>
      <trkpt lat="43.77825" lon="3.68841">
        <ele>373.3273</ele>
        <time>2015-03-21T12:07:19Z</time>
      </trkpt>
      <trkpt lat="43.77825" lon="3.68832">
        <ele>373.3273</ele>
        <time>2015-03-21T12:07:31Z</time>
      </trkpt>
      <trkpt lat="43.77825" lon="3.68821">
        <ele>374.91925</ele>
        <time>2015-03-21T12:07:32Z</time>
      </trkpt>
      <trkpt lat="43.77829" lon="3.68811">
        <ele>374.91925</ele>
        <time>2015-03-21T12:07:43Z</time>
      </trkpt>
      <trkpt lat="43.7783" lon="3.68801">
        <ele>376.4301</ele>
        <time>2015-03-21T12:07:48Z</time>
      </trkpt>
      <trkpt lat="43.7784" lon="3.68793">
        <ele>377.96484</ele>
        <time>2015-03-21T12:08:08Z</time>
      </trkpt>
      <trkpt lat="43.77869" lon="3.68767">
        <ele>379.77945</ele>
        <time>2015-03-21T12:08:37Z</time>
      </trkpt>
      <trkpt lat="43.7787" lon="3.68766">
        <ele>379.77945</ele>
        <time>2015-03-21T12:08:42Z</time>
      </trkpt>
      <trkpt lat="43.77876" lon="3.68754">
        <ele>381.50473</ele>
        <time>2015-03-21T12:08:48Z</time>
      </trkpt>
      <trkpt lat="43.77886" lon="3.68744">
        <ele>383.15955</ele>
        <time>2015-03-21T12:09:00Z</time>
      </trkpt>
      <trkpt lat="43.77894" lon="3.68731">
        <ele>384.7618</ele>
        <time>2015-03-21T12:09:13Z</time>
      </trkpt>
      <trkpt lat="43.77899" lon="3.68721">
        <ele>384.7618</ele>
        <time>2015-03-21T12:09:15Z</time>
      </trkpt>
      <trkpt lat="43.7791" lon="3.68714">
        <ele>386.41486</ele>
        <time>2015-03-21T12:09:25Z</time>
      </trkpt>
      <trkpt lat="43.77915" lon="3.6871">
        <ele>386.41486</ele>
        <time>2015-03-21T12:09:40Z</time>
      </trkpt>
      <trkpt lat="43.77931" lon="3.68698">
        <ele>388.1279</ele>
        <time>2015-03-21T12:09:48Z</time>
      </trkpt>
      <trkpt lat="43.77951" lon="3.6869">
        <ele>389.93826</ele>
        <time>2015-03-21T12:10:18Z</time>
      </trkpt>
      <trkpt lat="43.77956" lon="3.68682">
        <ele>389.93826</ele>
        <time>2015-03-21T12:10:38Z</time>
      </trkpt>
      <trkpt lat="43.77961" lon="3.68677">
        <ele>391.02963</ele>
        <time>2015-03-21T12:10:43Z</time>
      </trkpt>
      <trkpt lat="43.77966" lon="3.68673">
        <ele>391.02963</ele>
        <time>2015-03-21T12:10:48Z</time>
      </trkpt>
      <trkpt lat="43.77971" lon="3.6867">
        <ele>391.87354</ele>
        <time>2015-03-21T12:10:56Z</time>
      </trkpt>
      <trkpt lat="43.77974" lon="3.68668">
        <ele>391.87354</ele>
        <time>2015-03-21T12:11:00Z</time>
      </trkpt>
      <trkpt lat="43.77989" lon="3.68633">
        <ele>392.4174</ele>
        <time>2015-03-21T12:11:18Z</time>
      </trkpt>
      <trkpt lat="43.77995" lon="3.68623">
        <ele>392.8296</ele>
        <time>2015-03-21T12:11:31Z</time>
      </trkpt>
      <trkpt lat="43.77999" lon="3.6861">
        <ele>393.09366</ele>
        <time>2015-03-21T12:11:43Z</time>
      </trkpt>
      <trkpt lat="43.78002" lon="3.68602">
        <ele>393.09366</ele>
        <time>2015-03-21T12:11:43Z</time>
      </trkpt>
      <trkpt lat="43.78004" lon="3.68595">
        <ele>393.38217</ele>
        <time>2015-03-21T12:11:50Z</time>
      </trkpt>
      <trkpt lat="43.78012" lon="3.68587">
        <ele>393.58112</ele>
        <time>2015-03-21T12:12:00Z</time>
      </trkpt>
      <trkpt lat="43.78019" lon="3.68564">
        <ele>393.81577</ele>
        <time>2015-03-21T12:12:13Z</time>
      </trkpt>
      <trkpt lat="43.78018" lon="3.68537">
        <ele>394.00034</ele>
        <time>2015-03-21T12:12:28Z</time>
      </trkpt>
      <trkpt lat="43.78019" lon="3.6853">
        <ele>394.00034</ele>
        <time>2015-03-21T12:12:38Z</time>
      </trkpt>
      <trkpt lat="43.78022" lon="3.68508">
        <ele>394.21402</ele>
        <time>2015-03-21T12:12:48Z</time>
      </trkpt>
      <trkpt lat="43.78025" lon="3.68489">
        <ele>394.3716</ele>
        <time>2015-03-21T12:13:13Z</time>
      </trkpt>
      <trkpt lat="43.78026" lon="3.68481">
        <ele>394.3716</ele>
        <time>2015-03-21T12:13:40Z</time>
      </trkpt>
      <trkpt lat="43.78035" lon="3.68412">
        <ele>394.71136</ele>
        <time>2015-03-21T12:13:48Z</time>
      </trkpt>
      <trkpt lat="43.78036" lon="3.68403">
        <ele>394.71136</ele>
        <time>2015-03-21T12:14:03Z</time>
      </trkpt>
      <trkpt lat="43.78039" lon="3.68392">
        <ele>394.9779</ele>
        <time>2015-03-21T12:14:04Z</time>
      </trkpt>
      <trkpt lat="43.78029" lon="3.68369">
        <ele>395.19418</ele>
        <time>2015-03-21T12:14:16Z</time>
      </trkpt>
      <trkpt lat="43.78027" lon="3.68366">
        <ele>395.19418</ele>
        <time>2015-03-21T12:14:18Z</time>
      </trkpt>
      <trkpt lat="43.78025" lon="3.6836">
        <ele>395.19418</ele>
        <time>2015-03-21T12:14:23Z</time>
      </trkpt>
      <trkpt lat="43.78026" lon="3.68358">
        <ele>395.3096</ele>
        <time>2015-03-21T12:14:29Z</time>
      </trkpt>
      <trkpt lat="43.78024" lon="3.68353">
        <ele>395.3096</ele>
        <time>2015-03-21T12:15:43Z</time>
      </trkpt>
      <trkpt lat="43.78023" lon="3.6835">
        <ele>395.3096</ele>
        <time>2015-03-21T12:15:49Z</time>
      </trkpt>
      <trkpt lat="43.78023" lon="3.68349">
        <ele>395.3096</ele>
        <time>2015-03-21T12:15:54Z</time>
      </trkpt>
      <trkpt lat="43.78024" lon="3.68347">
        <ele>395.33505</ele>
        <time>2015-03-21T12:16:03Z</time>
      </trkpt>
      <trkpt lat="43.78022" lon="3.6834">
        <ele>395.33505</ele>
        <time>2015-03-21T12:16:10Z</time>
      </trkpt>
      <trkpt lat="43.78022" lon="3.68339">
        <ele>395.33505</ele>
        <time>2015-03-21T12:16:14Z</time>
      </trkpt>
      <trkpt lat="43.78021" lon="3.68335">
        <ele>395.33505</ele>
        <time>2015-03-21T12:16:25Z</time>
      </trkpt>
      <trkpt lat="43.78019" lon="3.68328">
        <ele>395.30975</ele>
        <time>2015-03-21T12:16:29Z</time>
      </trkpt>
      <trkpt lat="43.78018" lon="3.68322">
        <ele>395.30975</ele>
        <time>2015-03-21T12:16:34Z</time>
      </trkpt>
      <trkpt lat="43.78016" lon="3.68315">
        <ele>395.1692</ele>
        <time>2015-03-21T12:16:41Z</time>
      </trkpt>
      <trkpt lat="43.78013" lon="3.68308">
        <ele>395.1692</ele>
        <time>2015-03-21T12:16:44Z</time>
      </trkpt>
      <trkpt lat="43.7801" lon="3.68302">
        <ele>394.96915</ele>
        <time>2015-03-21T12:16:48Z</time>
      </trkpt>
      <trkpt lat="43.78007" lon="3.68292">
        <ele>394.96915</ele>
        <time>2015-03-21T12:16:53Z</time>
      </trkpt>
      <trkpt lat="43.78005" lon="3.68285">
        <ele>394.79028</ele>
        <time>2015-03-21T12:16:58Z</time>
      </trkpt>
      <trkpt lat="43.78004" lon="3.68277">
        <ele>394.79028</ele>
        <time>2015-03-21T12:17:05Z</time>
      </trkpt>
      <trkpt lat="43.78004" lon="3.68269">
        <ele>394.62064</ele>
        <time>2015-03-21T12:17:08Z</time>
      </trkpt>
      <trkpt lat="43.78004" lon="3.68264">
        <ele>394.62064</ele>
        <time>2015-03-21T12:17:14Z</time>
      </trkpt>
      <trkpt lat="43.78003" lon="3.68257">
        <ele>394.62064</ele>
        <time>2015-03-21T12:17:18Z</time>
      </trkpt>
      <trkpt lat="43.78004" lon="3.68249">
        <ele>394.6364</ele>
        <time>2015-03-21T12:17:23Z</time>
      </trkpt>
      <trkpt lat="43.78009" lon="3.68226">
        <ele>394.81293</ele>
        <time>2015-03-21T12:17:38Z</time>
      </trkpt>
      <trkpt lat="43.78005" lon="3.68209">
        <ele>395.0547</ele>
        <time>2015-03-21T12:17:50Z</time>
      </trkpt>
      <trkpt lat="43.78005" lon="3.68205">
        <ele>395.0547</ele>
        <time>2015-03-21T12:17:53Z</time>
      </trkpt>
      <trkpt lat="43.78004" lon="3.68199">
        <ele>395.0547</ele>
        <time>2015-03-21T12:17:58Z</time>
      </trkpt>
      <trkpt lat="43.78003" lon="3.68161">
        <ele>395.54675</ele>
        <time>2015-03-21T12:18:48Z</time>
      </trkpt>
      <trkpt lat="43.78012" lon="3.68105">
        <ele>397.02185</ele>
        <time>2015-03-21T12:19:04Z</time>
      </trkpt>
      <trkpt lat="43.78014" lon="3.68092">
        <ele>398.44107</ele>
        <time>2015-03-21T12:19:42Z</time>
      </trkpt>
      <trkpt lat="43.78021" lon="3.68042">
        <ele>400.61453</ele>
        <time>2015-03-21T12:19:48Z</time>
      </trkpt>
      <trkpt lat="43.78025" lon="3.68026">
        <ele>402.84946</ele>
        <time>2015-03-21T12:20:08Z</time>
      </trkpt>
      <trkpt lat="43.78026" lon="3.68017">
        <ele>402.84946</ele>
        <time>2015-03-21T12:20:08Z</time>
      </trkpt>
      <trkpt lat="43.78043" lon="3.67959">
        <ele>405.85846</ele>
        <time>2015-03-21T12:20:52Z</time>
      </trkpt>
      <trkpt lat="43.78042" lon="3.67958">
        <ele>405.85846</ele>
        <time>2015-03-21T12:21:00Z</time>
      </trkpt>
      <trkpt lat="43.78041" lon="3.6795">
        <ele>405.85846</ele>
        <time>2015-03-21T12:21:00Z</time>
      </trkpt>
      <trkpt lat="43.78044" lon="3.67916">
        <ele>408.84402</ele>
        <time>2015-03-21T12:21:48Z</time>
      </trkpt>
      <trkpt lat="43.78044" lon="3.67915">
        <ele>408.84402</ele>
        <time>2015-03-21T12:21:48Z</time>
      </trkpt>
      <trkpt lat="43.78034" lon="3.67891">
        <ele>411.36987</ele>
        <time>2015-03-21T12:22:40Z</time>
      </trkpt>
      <trkpt lat="43.78023" lon="3.67884">
        <ele>413.10513</ele>
        <time>2015-03-21T12:22:49Z</time>
      </trkpt>
      <trkpt lat="43.78011" lon="3.67868">
        <ele>414.23547</ele>
        <time>2015-03-21T12:23:54Z</time>
      </trkpt>
      <trkpt lat="43.78001" lon="3.67858">
        <ele>414.94904</ele>
        <time>2015-03-21T12:25:12Z</time>
      </trkpt>
      <trkpt lat="43.77995" lon="3.67853">
        <ele>414.94904</ele>
        <time>2015-03-21T12:26:10Z</time>
      </trkpt>
      <trkpt lat="43.77988" lon="3.6785">
        <ele>415.06097</ele>
        <time>2015-03-21T12:26:53Z</time>
      </trkpt>
      <trkpt lat="43.77984" lon="3.67845">
        <ele>415.06097</ele>
        <time>2015-03-21T12:26:58Z</time>
      </trkpt>
      <trkpt lat="43.77976" lon="3.67842">
        <ele>414.99265</ele>
        <time>2015-03-21T12:27:18Z</time>
      </trkpt>
      <trkpt lat="43.77975" lon="3.67842">
        <ele>414.99265</ele>
        <time>2015-03-21T12:27:23Z</time>
      </trkpt>
      <trkpt lat="43.77963" lon="3.67835">
        <ele>414.47205</ele>
        <time>2015-03-21T12:28:20Z</time>
      </trkpt>
      <trkpt lat="43.77951" lon="3.67815">
        <ele>413.47897</ele>
        <time>2015-03-21T12:28:33Z</time>
      </trkpt>
      <trkpt lat="43.7795" lon="3.67815">
        <ele>413.47897</ele>
        <time>2015-03-21T12:28:33Z</time>
      </trkpt>
      <trkpt lat="43.77942" lon="3.67817">
        <ele>412.22662</ele>
        <time>2015-03-21T12:28:48Z</time>
      </trkpt>
      <trkpt lat="43.77937" lon="3.67816">
        <ele>412.22662</ele>
        <time>2015-03-21T12:28:48Z</time>
      </trkpt>
      <trkpt lat="43.77928" lon="3.67807">
        <ele>410.4952</ele>
        <time>2015-03-21T12:29:06Z</time>
      </trkpt>
      <trkpt lat="43.77913" lon="3.67792">
        <ele>408.29868</ele>
        <time>2015-03-21T12:29:23Z</time>
      </trkpt>
      <trkpt lat="43.77908" lon="3.67783">
        <ele>408.29868</ele>
        <time>2015-03-21T12:29:45Z</time>
      </trkpt>
      <trkpt lat="43.77897" lon="3.67771">
        <ele>405.62225</ele>
        <time>2015-03-21T12:29:49Z</time>
      </trkpt>
      <trkpt lat="43.77892" lon="3.67766">
        <ele>405.62225</ele>
        <time>2015-03-21T12:29:53Z</time>
      </trkpt>
      <trkpt lat="43.77889" lon="3.67762">
        <ele>402.7706</ele>
        <time>2015-03-21T12:29:58Z</time>
      </trkpt>
      <trkpt lat="43.77884" lon="3.67758">
        <ele>402.7706</ele>
        <time>2015-03-21T12:30:03Z</time>
      </trkpt>
      <trkpt lat="43.77879" lon="3.67753">
        <ele>399.7382</ele>
        <time>2015-03-21T12:30:08Z</time>
      </trkpt>
      <trkpt lat="43.77874" lon="3.6775">
        <ele>399.7382</ele>
        <time>2015-03-21T12:30:13Z</time>
      </trkpt>
      <trkpt lat="43.7787" lon="3.6775">
        <ele>399.7382</ele>
        <time>2015-03-21T12:30:18Z</time>
      </trkpt>
      <trkpt lat="43.77865" lon="3.67749">
        <ele>396.41928</ele>
        <time>2015-03-21T12:30:23Z</time>
      </trkpt>
      <trkpt lat="43.77859" lon="3.67745">
        <ele>396.41928</ele>
        <time>2015-03-21T12:30:28Z</time>
      </trkpt>
      <trkpt lat="43.77853" lon="3.67744">
        <ele>393.06256</ele>
        <time>2015-03-21T12:30:33Z</time>
      </trkpt>
      <trkpt lat="43.77849" lon="3.67749">
        <ele>393.06256</ele>
        <time>2015-03-21T12:30:38Z</time>
      </trkpt>
      <trkpt lat="43.77844" lon="3.67752">
        <ele>389.69647</ele>
        <time>2015-03-21T12:30:43Z</time>
      </trkpt>
      <trkpt lat="43.77836" lon="3.67748">
        <ele>386.3473</ele>
        <time>2015-03-21T12:30:53Z</time>
      </trkpt>
      <trkpt lat="43.77832" lon="3.67745">
        <ele>386.3473</ele>
        <time>2015-03-21T12:30:53Z</time>
      </trkpt>
      <trkpt lat="43.77814" lon="3.67729">
        <ele>382.54907</ele>
        <time>2015-03-21T12:31:10Z</time>
      </trkpt>
      <trkpt lat="43.77805" lon="3.67725">
        <ele>378.8223</ele>
        <time>2015-03-21T12:31:17Z</time>
      </trkpt>
      <trkpt lat="43.77804" lon="3.67725">
        <ele>378.8223</ele>
        <time>2015-03-21T12:31:18Z</time>
      </trkpt>
      <trkpt lat="43.77792" lon="3.67725">
        <ele>375.02902</ele>
        <time>2015-03-21T12:31:29Z</time>
      </trkpt>
      <trkpt lat="43.77787" lon="3.67724">
        <ele>375.02902</ele>
        <time>2015-03-21T12:31:36Z</time>
      </trkpt>
      <trkpt lat="43.77785" lon="3.67725">
        <ele>375.02902</ele>
        <time>2015-03-21T12:31:39Z</time>
      </trkpt>
      <trkpt lat="43.7777" lon="3.67721">
        <ele>371.28644</ele>
        <time>2015-03-21T12:31:53Z</time>
      </trkpt>
      <trkpt lat="43.77767" lon="3.6772">
        <ele>371.28644</ele>
        <time>2015-03-21T12:31:53Z</time>
      </trkpt>
      <trkpt lat="43.77741" lon="3.67709">
        <ele>367.73138</ele>
        <time>2015-03-21T12:32:16Z</time>
      </trkpt>
      <trkpt lat="43.77735" lon="3.67705">
        <ele>367.73138</ele>
        <time>2015-03-21T12:32:26Z</time>
      </trkpt>
      <trkpt lat="43.77717" lon="3.67693">
        <ele>364.4756</ele>
        <time>2015-03-21T12:32:43Z</time>
      </trkpt>
      <trkpt lat="43.77705" lon="3.67685">
        <ele>361.54922</ele>
        <time>2015-03-21T12:32:50Z</time>
      </trkpt>
      <trkpt lat="43.77703" lon="3.67683">
        <ele>361.54922</ele>
        <time>2015-03-21T12:33:00Z</time>
      </trkpt>
      <trkpt lat="43.77682" lon="3.67665">
        <ele>359.03677</ele>
        <time>2015-03-21T12:33:13Z</time>
      </trkpt>
      <trkpt lat="43.77657" lon="3.67651">
        <ele>356.6979</ele>
        <time>2015-03-21T12:33:35Z</time>
      </trkpt>
      <trkpt lat="43.77642" lon="3.67648">
        <ele>354.45337</ele>
        <time>2015-03-21T12:33:49Z</time>
      </trkpt>
      <trkpt lat="43.77633" lon="3.67648">
        <ele>352.44528</ele>
        <time>2015-03-21T12:34:00Z</time>
      </trkpt>
      <trkpt lat="43.77622" lon="3.6764">
        <ele>350.6891</ele>
        <time>2015-03-21T12:34:15Z</time>
      </trkpt>
      <trkpt lat="43.77604" lon="3.6763">
        <ele>349.1405</ele>
        <time>2015-03-21T12:34:23Z</time>
      </trkpt>
      <trkpt lat="43.77589" lon="3.67619">
        <ele>347.87286</ele>
        <time>2015-03-21T12:34:44Z</time>
      </trkpt>
      <trkpt lat="43.77576" lon="3.67614">
        <ele>347.05405</ele>
        <time>2015-03-21T12:34:57Z</time>
      </trkpt>
      <trkpt lat="43.77555" lon="3.67601">
        <ele>346.43454</ele>
        <time>2015-03-21T12:35:12Z</time>
      </trkpt>
      <trkpt lat="43.77554" lon="3.67601">
        <ele>346.43454</ele>
        <time>2015-03-21T12:35:17Z</time>
      </trkpt>
      <trkpt lat="43.77549" lon="3.67599">
        <ele>346.43454</ele>
        <time>2015-03-21T12:35:25Z</time>
      </trkpt>
      <trkpt lat="43.77525" lon="3.67591">
        <ele>346.11383</ele>
        <time>2015-03-21T12:35:38Z</time>
      </trkpt>
      <trkpt lat="43.77512" lon="3.67578">
        <ele>346.039</ele>
        <time>2015-03-21T12:35:51Z</time>
      </trkpt>
      <trkpt lat="43.77509" lon="3.67576">
        <ele>346.039</ele>
        <time>2015-03-21T12:35:59Z</time>
      </trkpt>
      <trkpt lat="43.77441" lon="3.67548">
        <ele>346.21777</ele>
        <time>2015-03-21T12:36:50Z</time>
      </trkpt>
      <trkpt lat="43.7744" lon="3.67548">
        <ele>346.21777</ele>
        <time>2015-03-21T12:37:00Z</time>
      </trkpt>
      <trkpt lat="43.77377" lon="3.6752">
        <ele>346.32495</ele>
        <time>2015-03-21T12:37:51Z</time>
      </trkpt>
      <trkpt lat="43.77372" lon="3.67518">
        <ele>346.32495</ele>
        <time>2015-03-21T12:37:58Z</time>
      </trkpt>
      <trkpt lat="43.77334" lon="3.67508">
        <ele>346.7367</ele>
        <time>2015-03-21T12:38:54Z</time>
      </trkpt>
      <trkpt lat="43.77328" lon="3.67495">
        <ele>347.28168</ele>
        <time>2015-03-21T12:39:31Z</time>
      </trkpt>
      <trkpt lat="43.773" lon="3.67468">
        <ele>348.31958</ele>
        <time>2015-03-21T12:40:01Z</time>
      </trkpt>
      <trkpt lat="43.77279" lon="3.67432">
        <ele>349.5481</ele>
        <time>2015-03-21T12:40:59Z</time>
      </trkpt>
      <trkpt lat="43.77285" lon="3.67421">
        <ele>350.6289</ele>
        <time>2015-03-21T12:41:57Z</time>
      </trkpt>
      <trkpt lat="43.77273" lon="3.67416">
        <ele>351.79657</ele>
        <time>2015-03-21T12:42:38Z</time>
      </trkpt>
      <trkpt lat="43.77271" lon="3.67411">
        <ele>351.79657</ele>
        <time>2015-03-21T12:42:44Z</time>
      </trkpt>
      <trkpt lat="43.77263" lon="3.67409">
        <ele>352.70615</ele>
        <time>2015-03-21T12:43:06Z</time>
      </trkpt>
      <trkpt lat="43.77261" lon="3.674">
        <ele>352.70615</ele>
        <time>2015-03-21T12:43:11Z</time>
      </trkpt>
      <trkpt lat="43.77261" lon="3.67399">
        <ele>352.70615</ele>
        <time>2015-03-21T12:43:18Z</time>
      </trkpt>
      <trkpt lat="43.77248" lon="3.67393">
        <ele>353.09644</ele>
        <time>2015-03-21T12:43:50Z</time>
      </trkpt>
      <trkpt lat="43.77243" lon="3.67392">
        <ele>353.09644</ele>
        <time>2015-03-21T12:44:00Z</time>
      </trkpt>
      <trkpt lat="43.77238" lon="3.67387">
        <ele>353.31775</ele>
        <time>2015-03-21T12:44:32Z</time>
      </trkpt>
      <trkpt lat="43.77232" lon="3.67383">
        <ele>353.31775</ele>
        <time>2015-03-21T12:44:41Z</time>
      </trkpt>
      <trkpt lat="43.77219" lon="3.67372">
        <ele>353.2629</ele>
        <time>2015-03-21T12:44:48Z</time>
      </trkpt>
      <trkpt lat="43.77215" lon="3.67367">
        <ele>353.2629</ele>
        <time>2015-03-21T12:44:53Z</time>
      </trkpt>
      <trkpt lat="43.77212" lon="3.6736">
        <ele>353.0784</ele>
        <time>2015-03-21T12:44:58Z</time>
      </trkpt>
      <trkpt lat="43.7721" lon="3.67353">
        <ele>353.0784</ele>
        <time>2015-03-21T12:45:14Z</time>
      </trkpt>
      <trkpt lat="43.77206" lon="3.67347">
        <ele>352.68423</ele>
        <time>2015-03-21T12:45:14Z</time>
      </trkpt>
      <trkpt lat="43.77203" lon="3.67346">
        <ele>352.68423</ele>
        <time>2015-03-21T12:45:17Z</time>
      </trkpt>
      <trkpt lat="43.77189" lon="3.67361">
        <ele>352.15106</ele>
        <time>2015-03-21T12:45:36Z</time>
      </trkpt>
      <trkpt lat="43.77185" lon="3.67375">
        <ele>351.55923</ele>
        <time>2015-03-21T12:45:50Z</time>
      </trkpt>
      <trkpt lat="43.77181" lon="3.67374">
        <ele>351.55923</ele>
        <time>2015-03-21T12:45:57Z</time>
      </trkpt>
      <trkpt lat="43.77172" lon="3.67366">
        <ele>350.6808</ele>
        <time>2015-03-21T12:46:18Z</time>
      </trkpt>
      <trkpt lat="43.77136" lon="3.6733">
        <ele>349.291</ele>
        <time>2015-03-21T12:47:26Z</time>
      </trkpt>
      <trkpt lat="43.77119" lon="3.67315">
        <ele>347.12546</ele>
        <time>2015-03-21T12:47:53Z</time>
      </trkpt>
      <trkpt lat="43.77114" lon="3.67322">
        <ele>347.12546</ele>
        <time>2015-03-21T12:49:28Z</time>
      </trkpt>
      <trkpt lat="43.77112" lon="3.67329">
        <ele>344.5756</ele>
        <time>2015-03-21T12:49:33Z</time>
      </trkpt>
      <trkpt lat="43.77109" lon="3.67335">
        <ele>344.5756</ele>
        <time>2015-03-21T12:49:38Z</time>
      </trkpt>
      <trkpt lat="43.77106" lon="3.67338">
        <ele>344.5756</ele>
        <time>2015-03-21T12:49:43Z</time>
      </trkpt>
      <trkpt lat="43.77106" lon="3.67344">
        <ele>342.30774</ele>
        <time>2015-03-21T12:49:50Z</time>
      </trkpt>
      <trkpt lat="43.77104" lon="3.67344">
        <ele>342.30774</ele>
        <time>2015-03-21T12:49:55Z</time>
      </trkpt>
      <trkpt lat="43.771" lon="3.67346">
        <ele>342.30774</ele>
        <time>2015-03-21T12:50:14Z</time>
      </trkpt>
      <trkpt lat="43.77088" lon="3.67353">
        <ele>340.2613</ele>
        <time>2015-03-21T12:50:50Z</time>
      </trkpt>
      <trkpt lat="43.77085" lon="3.67355">
        <ele>340.2613</ele>
        <time>2015-03-21T12:50:53Z</time>
      </trkpt>
      <trkpt lat="43.77081" lon="3.67361">
        <ele>340.2613</ele>
        <time>2015-03-21T12:50:58Z</time>
      </trkpt>
      <trkpt lat="43.77084" lon="3.67403">
        <ele>338.42267</ele>
        <time>2015-03-21T12:51:32Z</time>
      </trkpt>
      <trkpt lat="43.77086" lon="3.67414">
        <ele>338.42267</ele>
        <time>2015-03-21T12:51:43Z</time>
      </trkpt>
      <trkpt lat="43.77083" lon="3.6743">
        <ele>336.33203</ele>
        <time>2015-03-21T12:53:39Z</time>
      </trkpt>
      <trkpt lat="43.77083" lon="3.67432">
        <ele>336.33203</ele>
        <time>2015-03-21T12:53:39Z</time>
      </trkpt>
      <trkpt lat="43.77078" lon="3.67448">
        <ele>334.5151</ele>
        <time>2015-03-21T12:53:50Z</time>
      </trkpt>
      <trkpt lat="43.77076" lon="3.67452">
        <ele>334.5151</ele>
        <time>2015-03-21T12:53:53Z</time>
      </trkpt>
      <trkpt lat="43.77073" lon="3.67474">
        <ele>333.01157</ele>
        <time>2015-03-21T12:54:13Z</time>
      </trkpt>
      <trkpt lat="43.77071" lon="3.6749">
        <ele>331.74188</ele>
        <time>2015-03-21T12:54:14Z</time>
      </trkpt>
      <trkpt lat="43.7707" lon="3.67501">
        <ele>331.74188</ele>
        <time>2015-03-21T12:54:20Z</time>
      </trkpt>
      <trkpt lat="43.7707" lon="3.67506">
        <ele>330.6606</ele>
        <time>2015-03-21T12:54:23Z</time>
      </trkpt>
      <trkpt lat="43.7707" lon="3.67509">
        <ele>330.6606</ele>
        <time>2015-03-21T12:54:28Z</time>
      </trkpt>
      <trkpt lat="43.7707" lon="3.67508">
        <ele>330.6606</ele>
        <time>2015-03-21T12:54:33Z</time>
      </trkpt>
      <trkpt lat="43.77069" lon="3.67516">
        <ele>330.6606</ele>
        <time>2015-03-21T12:54:40Z</time>
      </trkpt>
      <trkpt lat="43.77067" lon="3.67519">
        <ele>329.69626</ele>
        <time>2015-03-21T12:54:44Z</time>
      </trkpt>
      <trkpt lat="43.77066" lon="3.67521">
        <ele>329.69626</ele>
        <time>2015-03-21T12:54:48Z</time>
      </trkpt>
      <trkpt lat="43.77066" lon="3.67521">
        <ele>329.69626</ele>
        <time>2015-03-21T12:54:53Z</time>
      </trkpt>
      <trkpt lat="43.77067" lon="3.67531">
        <ele>328.89755</ele>
        <time>2015-03-21T12:55:08Z</time>
      </trkpt>
      <trkpt lat="43.77068" lon="3.67537">
        <ele>328.89755</ele>
        <time>2015-03-21T12:55:21Z</time>
      </trkpt>
      <trkpt lat="43.77069" lon="3.67556">
        <ele>328.1794</ele>
        <time>2015-03-21T12:55:23Z</time>
      </trkpt>
      <trkpt lat="43.77071" lon="3.67559">
        <ele>328.1794</ele>
        <time>2015-03-21T12:55:28Z</time>
      </trkpt>
      <trkpt lat="43.77071" lon="3.67559">
        <ele>328.1794</ele>
        <time>2015-03-21T12:55:33Z</time>
      </trkpt>
      <trkpt lat="43.77073" lon="3.67561">
        <ele>328.1794</ele>
        <time>2015-03-21T12:55:43Z</time>
      </trkpt>
      <trkpt lat="43.77077" lon="3.67566">
        <ele>327.47726</ele>
        <time>2015-03-21T12:55:48Z</time>
      </trkpt>
      <trkpt lat="43.77075" lon="3.67569">
        <ele>327.47726</ele>
        <time>2015-03-21T12:55:53Z</time>
      </trkpt>
      <trkpt lat="43.77075" lon="3.67577">
        <ele>326.86084</ele>
        <time>2015-03-21T12:55:58Z</time>
      </trkpt>
      <trkpt lat="43.77075" lon="3.67585">
        <ele>326.86084</ele>
        <time>2015-03-21T12:56:03Z</time>
      </trkpt>
      <trkpt lat="43.77074" lon="3.67593">
        <ele>326.38016</ele>
        <time>2015-03-21T12:56:08Z</time>
      </trkpt>
      <trkpt lat="43.77072" lon="3.676">
        <ele>326.38016</ele>
        <time>2015-03-21T12:56:13Z</time>
      </trkpt>
      <trkpt lat="43.77073" lon="3.67604">
        <ele>326.38016</ele>
        <time>2015-03-21T12:56:18Z</time>
      </trkpt>
      <trkpt lat="43.77074" lon="3.67605">
        <ele>325.9659</ele>
        <time>2015-03-21T12:56:23Z</time>
      </trkpt>
      <trkpt lat="43.77073" lon="3.67615">
        <ele>325.9659</ele>
        <time>2015-03-21T12:58:03Z</time>
      </trkpt>
      <trkpt lat="43.77071" lon="3.67623">
        <ele>325.10687</ele>
        <time>2015-03-21T12:58:08Z</time>
      </trkpt>
      <trkpt lat="43.7707" lon="3.67631">
        <ele>325.10687</ele>
        <time>2015-03-21T12:58:13Z</time>
      </trkpt>
      <trkpt lat="43.77068" lon="3.67638">
        <ele>324.38278</ele>
        <time>2015-03-21T12:58:18Z</time>
      </trkpt>
      <trkpt lat="43.77065" lon="3.67646">
        <ele>324.38278</ele>
        <time>2015-03-21T12:58:23Z</time>
      </trkpt>
      <trkpt lat="43.77066" lon="3.67648">
        <ele>324.38278</ele>
        <time>2015-03-21T12:58:28Z</time>
      </trkpt>
      <trkpt lat="43.77066" lon="3.67653">
        <ele>323.7106</ele>
        <time>2015-03-21T12:58:58Z</time>
      </trkpt>
      <trkpt lat="43.77065" lon="3.67654">
        <ele>323.7106</ele>
        <time>2015-03-21T12:59:03Z</time>
      </trkpt>
      <trkpt lat="43.77063" lon="3.6766">
        <ele>323.7106</ele>
        <time>2015-03-21T12:59:08Z</time>
      </trkpt>
      <trkpt lat="43.77061" lon="3.67668">
        <ele>323.18634</ele>
        <time>2015-03-21T12:59:13Z</time>
      </trkpt>
      <trkpt lat="43.77057" lon="3.67675">
        <ele>323.18634</ele>
        <time>2015-03-21T12:59:18Z</time>
      </trkpt>
      <trkpt lat="43.77054" lon="3.67683">
        <ele>322.7687</ele>
        <time>2015-03-21T12:59:23Z</time>
      </trkpt>
      <trkpt lat="43.77055" lon="3.67692">
        <ele>322.7687</ele>
        <time>2015-03-21T12:59:28Z</time>
      </trkpt>
      <trkpt lat="43.77057" lon="3.67699">
        <ele>322.49133</ele>
        <time>2015-03-21T12:59:33Z</time>
      </trkpt>
      <trkpt lat="43.77058" lon="3.67713">
        <ele>322.3418</ele>
        <time>2015-03-21T12:59:43Z</time>
      </trkpt>
      <trkpt lat="43.77058" lon="3.67731">
        <ele>322.33694</ele>
        <time>2015-03-21T12:59:51Z</time>
      </trkpt>
      <trkpt lat="43.77057" lon="3.67735">
        <ele>322.33694</ele>
        <time>2015-03-21T12:59:53Z</time>
      </trkpt>
      <trkpt lat="43.77055" lon="3.67741">
        <ele>322.33694</ele>
        <time>2015-03-21T12:59:58Z</time>
      </trkpt>
      <trkpt lat="43.77054" lon="3.67748">
        <ele>322.42014</ele>
        <time>2015-03-21T13:00:03Z</time>
      </trkpt>
      <trkpt lat="43.77051" lon="3.67759">
        <ele>322.42014</ele>
        <time>2015-03-21T13:00:10Z</time>
      </trkpt>
      <trkpt lat="43.77051" lon="3.67771">
        <ele>322.7259</ele>
        <time>2015-03-21T13:00:15Z</time>
      </trkpt>
      <trkpt lat="43.77048" lon="3.67789">
        <ele>323.34955</ele>
        <time>2015-03-21T13:00:26Z</time>
      </trkpt>
      <trkpt lat="43.77044" lon="3.67793">
        <ele>323.34955</ele>
        <time>2015-03-21T13:00:35Z</time>
      </trkpt>
      <trkpt lat="43.77041" lon="3.67808">
        <ele>324.22003</ele>
        <time>2015-03-21T13:00:43Z</time>
      </trkpt>
      <trkpt lat="43.77043" lon="3.67825">
        <ele>325.2132</ele>
        <time>2015-03-21T13:00:51Z</time>
      </trkpt>
      <trkpt lat="43.77043" lon="3.67832">
        <ele>325.2132</ele>
        <time>2015-03-21T13:00:56Z</time>
      </trkpt>
      <trkpt lat="43.77045" lon="3.67842">
        <ele>326.40115</ele>
        <time>2015-03-21T13:01:02Z</time>
      </trkpt>
      <trkpt lat="43.77046" lon="3.67846">
        <ele>326.40115</ele>
        <time>2015-03-21T13:01:05Z</time>
      </trkpt>
      <trkpt lat="43.77046" lon="3.67863">
        <ele>327.90787</ele>
        <time>2015-03-21T13:01:17Z</time>
      </trkpt>
      <trkpt lat="43.77046" lon="3.67865">
        <ele>327.90787</ele>
        <time>2015-03-21T13:01:18Z</time>
      </trkpt>
      <trkpt lat="43.77045" lon="3.67895">
        <ele>329.67447</ele>
        <time>2015-03-21T13:01:41Z</time>
      </trkpt>
      <trkpt lat="43.77044" lon="3.67928">
        <ele>331.34317</ele>
        <time>2015-03-21T13:01:52Z</time>
      </trkpt>
      <trkpt lat="43.77042" lon="3.67962">
        <ele>333.0296</ele>
        <time>2015-03-21T13:02:17Z</time>
      </trkpt>
      <trkpt lat="43.77042" lon="3.68012">
        <ele>334.26453</ele>
        <time>2015-03-21T13:02:50Z</time>
      </trkpt>
      <trkpt lat="43.77041" lon="3.68031">
        <ele>335.33514</ele>
        <time>2015-03-21T13:02:53Z</time>
      </trkpt>
      <trkpt lat="43.77039" lon="3.68071">
        <ele>335.83087</ele>
        <time>2015-03-21T13:03:18Z</time>
      </trkpt>
      <trkpt lat="43.7703" lon="3.68128">
        <ele>335.7333</ele>
        <time>2015-03-21T13:03:55Z</time>
      </trkpt>
      <trkpt lat="43.77033" lon="3.68138">
        <ele>335.7333</ele>
        <time>2015-03-21T13:04:06Z</time>
      </trkpt>
      <trkpt lat="43.77044" lon="3.68167">
        <ele>335.35864</ele>
        <time>2015-03-21T13:04:14Z</time>
      </trkpt>
      <trkpt lat="43.7706" lon="3.68199">
        <ele>334.727</ele>
        <time>2015-03-21T13:04:42Z</time>
      </trkpt>
      <trkpt lat="43.77065" lon="3.68204">
        <ele>334.727</ele>
        <time>2015-03-21T13:04:50Z</time>
      </trkpt>
      <trkpt lat="43.7708" lon="3.68213">
        <ele>333.91544</ele>
        <time>2015-03-21T13:04:56Z</time>
      </trkpt>
      <trkpt lat="43.77083" lon="3.68219">
        <ele>333.91544</ele>
        <time>2015-03-21T13:05:05Z</time>
      </trkpt>
      <trkpt lat="43.77107" lon="3.68246">
        <ele>332.9096</ele>
        <time>2015-03-21T13:05:31Z</time>
      </trkpt>
      <trkpt lat="43.77107" lon="3.68269">
        <ele>331.62476</ele>
        <time>2015-03-21T13:05:37Z</time>
      </trkpt>
      <trkpt lat="43.77106" lon="3.68272">
        <ele>331.62476</ele>
        <time>2015-03-21T13:05:44Z</time>
      </trkpt>
      <trkpt lat="43.77099" lon="3.68293">
        <ele>330.37234</ele>
        <time>2015-03-21T13:05:52Z</time>
      </trkpt>
      <trkpt lat="43.77099" lon="3.68294">
        <ele>330.37234</ele>
        <time>2015-03-21T13:05:53Z</time>
      </trkpt>
      <trkpt lat="43.77034" lon="3.68338">
        <ele>328.56183</ele>
        <time>2015-03-21T13:06:51Z</time>
      </trkpt>
      <trkpt lat="43.77033" lon="3.68339">
        <ele>328.56183</ele>
        <time>2015-03-21T13:07:00Z</time>
      </trkpt>
      <trkpt lat="43.77007" lon="3.68365">
        <ele>326.46918</ele>
        <time>2015-03-21T13:07:15Z</time>
      </trkpt>
      <trkpt lat="43.77002" lon="3.68372">
        <ele>326.46918</ele>
        <time>2015-03-21T13:07:30Z</time>
      </trkpt>
      <trkpt lat="43.76994" lon="3.68383">
        <ele>324.495</ele>
        <time>2015-03-21T13:07:36Z</time>
      </trkpt>
      <trkpt lat="43.76986" lon="3.68395">
        <ele>322.8372</ele>
        <time>2015-03-21T13:07:45Z</time>
      </trkpt>
      <trkpt lat="43.76977" lon="3.68403">
        <ele>321.4333</ele>
        <time>2015-03-21T13:07:45Z</time>
      </trkpt>
      <trkpt lat="43.76971" lon="3.68409">
        <ele>321.4333</ele>
        <time>2015-03-21T13:07:50Z</time>
      </trkpt>
      <trkpt lat="43.76965" lon="3.68416">
        <ele>320.25357</ele>
        <time>2015-03-21T13:07:56Z</time>
      </trkpt>
      <trkpt lat="43.76963" lon="3.68418">
        <ele>320.25357</ele>
        <time>2015-03-21T13:08:03Z</time>
      </trkpt>
      <trkpt lat="43.76956" lon="3.68425">
        <ele>319.21216</ele>
        <time>2015-03-21T13:08:03Z</time>
      </trkpt>
      <trkpt lat="43.76955" lon="3.68425">
        <ele>319.21216</ele>
        <time>2015-03-21T13:08:08Z</time>
      </trkpt>
      <trkpt lat="43.76956" lon="3.68428">
        <ele>319.21216</ele>
        <time>2015-03-21T13:08:38Z</time>
      </trkpt>
      <trkpt lat="43.76951" lon="3.68435">
        <ele>318.1138</ele>
        <time>2015-03-21T13:08:43Z</time>
      </trkpt>
      <trkpt lat="43.76943" lon="3.6844">
        <ele>318.1138</ele>
        <time>2015-03-21T13:08:53Z</time>
      </trkpt>
      <trkpt lat="43.76944" lon="3.6844">
        <ele>316.99387</ele>
        <time>2015-03-21T13:08:58Z</time>
      </trkpt>
      <trkpt lat="43.7694" lon="3.68452">
        <ele>315.82755</ele>
        <time>2015-03-21T13:09:13Z</time>
      </trkpt>
      <trkpt lat="43.76933" lon="3.68455">
        <ele>315.82755</ele>
        <time>2015-03-21T13:09:18Z</time>
      </trkpt>
      <trkpt lat="43.76931" lon="3.68454">
        <ele>314.6928</ele>
        <time>2015-03-21T13:09:23Z</time>
      </trkpt>
      <trkpt lat="43.76929" lon="3.68456">
        <ele>314.6928</ele>
        <time>2015-03-21T13:09:28Z</time>
      </trkpt>
      <trkpt lat="43.76926" lon="3.68461">
        <ele>314.6928</ele>
        <time>2015-03-21T13:09:33Z</time>
      </trkpt>
      <trkpt lat="43.76923" lon="3.68467">
        <ele>313.6906</ele>
        <time>2015-03-21T13:09:38Z</time>
      </trkpt>
      <trkpt lat="43.76919" lon="3.68473">
        <ele>313.6906</ele>
        <time>2015-03-21T13:09:43Z</time>
      </trkpt>
      <trkpt lat="43.76916" lon="3.68481">
        <ele>312.78433</ele>
        <time>2015-03-21T13:09:48Z</time>
      </trkpt>
      <trkpt lat="43.76913" lon="3.6849">
        <ele>312.78433</ele>
        <time>2015-03-21T13:09:53Z</time>
      </trkpt>
      <trkpt lat="43.76914" lon="3.68499">
        <ele>311.93982</ele>
        <time>2015-03-21T13:09:58Z</time>
      </trkpt>
      <trkpt lat="43.76916" lon="3.68508">
        <ele>311.93982</ele>
        <time>2015-03-21T13:10:03Z</time>
      </trkpt>
      <trkpt lat="43.76914" lon="3.68519">
        <ele>311.1683</ele>
        <time>2015-03-21T13:10:08Z</time>
      </trkpt>
      <trkpt lat="43.76915" lon="3.68528">
        <ele>311.1683</ele>
        <time>2015-03-21T13:10:13Z</time>
      </trkpt>
      <trkpt lat="43.76918" lon="3.6854">
        <ele>310.42242</ele>
        <time>2015-03-21T13:10:18Z</time>
      </trkpt>
      <trkpt lat="43.7692" lon="3.68551">
        <ele>310.42242</ele>
        <time>2015-03-21T13:10:23Z</time>
      </trkpt>
      <trkpt lat="43.76923" lon="3.68561">
        <ele>309.75894</ele>
        <time>2015-03-21T13:10:28Z</time>
      </trkpt>
      <trkpt lat="43.76924" lon="3.68569">
        <ele>309.75894</ele>
        <time>2015-03-21T13:10:33Z</time>
      </trkpt>
      <trkpt lat="43.76926" lon="3.68577">
        <ele>309.18704</ele>
        <time>2015-03-21T13:10:38Z</time>
      </trkpt>
      <trkpt lat="43.76925" lon="3.68585">
        <ele>309.18704</ele>
        <time>2015-03-21T13:10:43Z</time>
      </trkpt>
      <trkpt lat="43.76923" lon="3.68597">
        <ele>308.68607</ele>
        <time>2015-03-21T13:10:50Z</time>
      </trkpt>
      <trkpt lat="43.76919" lon="3.68608">
        <ele>308.29422</ele>
        <time>2015-03-21T13:10:56Z</time>
      </trkpt>
      <trkpt lat="43.76917" lon="3.68612">
        <ele>308.29422</ele>
        <time>2015-03-21T13:10:59Z</time>
      </trkpt>
      <trkpt lat="43.76913" lon="3.68648">
        <ele>307.91693</ele>
        <time>2015-03-21T13:11:14Z</time>
      </trkpt>
      <trkpt lat="43.76913" lon="3.68665">
        <ele>307.7115</ele>
        <time>2015-03-21T13:11:24Z</time>
      </trkpt>
      <trkpt lat="43.76911" lon="3.68666">
        <ele>307.7115</ele>
        <time>2015-03-21T13:11:27Z</time>
      </trkpt>
      <trkpt lat="43.7691" lon="3.6867">
        <ele>307.7115</ele>
        <time>2015-03-21T13:11:33Z</time>
      </trkpt>
      <trkpt lat="43.76905" lon="3.68692">
        <ele>307.9239</ele>
        <time>2015-03-21T13:11:45Z</time>
      </trkpt>
      <trkpt lat="43.76899" lon="3.68713">
        <ele>308.3919</ele>
        <time>2015-03-21T13:11:53Z</time>
      </trkpt>
      <trkpt lat="43.76898" lon="3.68722">
        <ele>308.3919</ele>
        <time>2015-03-21T13:11:58Z</time>
      </trkpt>
      <trkpt lat="43.76895" lon="3.68727">
        <ele>309.1517</ele>
        <time>2015-03-21T13:12:08Z</time>
      </trkpt>
      <trkpt lat="43.76888" lon="3.68738">
        <ele>310.12073</ele>
        <time>2015-03-21T13:12:10Z</time>
      </trkpt>
      <trkpt lat="43.76874" lon="3.68764">
        <ele>311.1931</ele>
        <time>2015-03-21T13:12:28Z</time>
      </trkpt>
      <trkpt lat="43.76865" lon="3.6879">
        <ele>312.7748</ele>
        <time>2015-03-21T13:12:45Z</time>
      </trkpt>
      <trkpt lat="43.76864" lon="3.68809">
        <ele>314.30386</ele>
        <time>2015-03-21T13:12:55Z</time>
      </trkpt>
      <trkpt lat="43.76864" lon="3.68836">
        <ele>315.82184</ele>
        <time>2015-03-21T13:13:15Z</time>
      </trkpt>
      <trkpt lat="43.7683" lon="3.68898">
        <ele>316.73322</ele>
        <time>2015-03-21T13:13:52Z</time>
      </trkpt>
      <trkpt lat="43.76829" lon="3.68898">
        <ele>316.73322</ele>
        <time>2015-03-21T13:13:56Z</time>
      </trkpt>
      <trkpt lat="43.76799" lon="3.6892">
        <ele>317.65524</ele>
        <time>2015-03-21T13:14:20Z</time>
      </trkpt>
      <trkpt lat="43.76786" lon="3.68955">
        <ele>318.58353</ele>
        <time>2015-03-21T13:14:49Z</time>
      </trkpt>
      <trkpt lat="43.76784" lon="3.68967">
        <ele>318.58353</ele>
        <time>2015-03-21T13:14:49Z</time>
      </trkpt>
      <trkpt lat="43.76781" lon="3.68977">
        <ele>319.24014</ele>
        <time>2015-03-21T13:14:55Z</time>
      </trkpt>
      <trkpt lat="43.7678" lon="3.68993">
        <ele>319.71432</ele>
        <time>2015-03-21T13:15:05Z</time>
      </trkpt>
      <trkpt lat="43.76774" lon="3.6901">
        <ele>320.01736</ele>
        <time>2015-03-21T13:15:21Z</time>
      </trkpt>
      <trkpt lat="43.76762" lon="3.69045">
        <ele>319.94397</ele>
        <time>2015-03-21T13:15:33Z</time>
      </trkpt>
      <trkpt lat="43.7676" lon="3.69057">
        <ele>319.94397</ele>
        <time>2015-03-21T13:15:44Z</time>
      </trkpt>
      <trkpt lat="43.76752" lon="3.69067">
        <ele>319.579</ele>
        <time>2015-03-21T13:15:51Z</time>
      </trkpt>
      <trkpt lat="43.76746" lon="3.6907">
        <ele>319.579</ele>
        <time>2015-03-21T13:16:00Z</time>
      </trkpt>
      <trkpt lat="43.76737" lon="3.69079">
        <ele>319.1893</ele>
        <time>2015-03-21T13:16:01Z</time>
      </trkpt>
      <trkpt lat="43.76735" lon="3.69083">
        <ele>319.1893</ele>
        <time>2015-03-21T13:16:11Z</time>
      </trkpt>
      <trkpt lat="43.76727" lon="3.69099">
        <ele>318.79163</ele>
        <time>2015-03-21T13:16:13Z</time>
      </trkpt>
      <trkpt lat="43.76724" lon="3.69112">
        <ele>318.344</ele>
        <time>2015-03-21T13:16:21Z</time>
      </trkpt>
      <trkpt lat="43.76716" lon="3.69137">
        <ele>317.92294</ele>
        <time>2015-03-21T13:16:33Z</time>
      </trkpt>
      <trkpt lat="43.7671" lon="3.69147">
        <ele>317.46973</ele>
        <time>2015-03-21T13:16:39Z</time>
      </trkpt>
      <trkpt lat="43.76706" lon="3.69163">
        <ele>316.93002</ele>
        <time>2015-03-21T13:16:51Z</time>
      </trkpt>
      <trkpt lat="43.76705" lon="3.69172">
        <ele>316.93002</ele>
        <time>2015-03-21T13:16:56Z</time>
      </trkpt>
      <trkpt lat="43.76702" lon="3.69184">
        <ele>316.26816</ele>
        <time>2015-03-21T13:17:05Z</time>
      </trkpt>
      <trkpt lat="43.76697" lon="3.69206">
        <ele>315.42264</ele>
        <time>2015-03-21T13:17:19Z</time>
      </trkpt>
      <trkpt lat="43.76673" lon="3.69247">
        <ele>314.0633</ele>
        <time>2015-03-21T13:17:40Z</time>
      </trkpt>
      <trkpt lat="43.76661" lon="3.6926">
        <ele>312.75018</ele>
        <time>2015-03-21T13:17:51Z</time>
      </trkpt>
      <trkpt lat="43.7666" lon="3.69261">
        <ele>312.75018</ele>
        <time>2015-03-21T13:17:52Z</time>
      </trkpt>
      <trkpt lat="43.76658" lon="3.69263">
        <ele>312.75018</ele>
        <time>2015-03-21T13:17:53Z</time>
      </trkpt>
      <trkpt lat="43.76648" lon="3.69269">
        <ele>311.48346</ele>
        <time>2015-03-21T13:18:06Z</time>
      </trkpt>
      <trkpt lat="43.76639" lon="3.69276">
        <ele>310.26303</ele>
        <time>2015-03-21T13:18:14Z</time>
      </trkpt>
      <trkpt lat="43.76628" lon="3.69283">
        <ele>309.031</ele>
        <time>2015-03-21T13:18:23Z</time>
      </trkpt>
      <trkpt lat="43.76621" lon="3.69288">
        <ele>309.031</ele>
        <time>2015-03-21T13:18:23Z</time>
      </trkpt>
      <trkpt lat="43.76599" lon="3.69313">
        <ele>307.40234</ele>
        <time>2015-03-21T13:18:43Z</time>
      </trkpt>
      <trkpt lat="43.76592" lon="3.69325">
        <ele>305.87164</ele>
        <time>2015-03-21T13:18:52Z</time>
      </trkpt>
      <trkpt lat="43.76591" lon="3.69326">
        <ele>305.87164</ele>
        <time>2015-03-21T13:18:59Z</time>
      </trkpt>
      <trkpt lat="43.76575" lon="3.6935">
        <ele>304.3636</ele>
        <time>2015-03-21T13:19:15Z</time>
      </trkpt>
      <trkpt lat="43.76558" lon="3.69402">
        <ele>302.99564</ele>
        <time>2015-03-21T13:19:40Z</time>
      </trkpt>
      <trkpt lat="43.76558" lon="3.69405">
        <ele>302.99564</ele>
        <time>2015-03-21T13:19:48Z</time>
      </trkpt>
      <trkpt lat="43.76558" lon="3.69419">
        <ele>301.7321</ele>
        <time>2015-03-21T13:19:51Z</time>
      </trkpt>
      <trkpt lat="43.7656" lon="3.69425">
        <ele>301.7321</ele>
        <time>2015-03-21T13:19:56Z</time>
      </trkpt>
      <trkpt lat="43.76565" lon="3.69444">
        <ele>300.29446</ele>
        <time>2015-03-21T13:20:08Z</time>
      </trkpt>
      <trkpt lat="43.76567" lon="3.69481">
        <ele>298.46844</ele>
        <time>2015-03-21T13:20:24Z</time>
      </trkpt>
      <trkpt lat="43.76577" lon="3.6952">
        <ele>296.5176</ele>
        <time>2015-03-21T13:20:38Z</time>
      </trkpt>
      <trkpt lat="43.76582" lon="3.69543">
        <ele>294.6576</ele>
        <time>2015-03-21T13:20:52Z</time>
      </trkpt>
      <trkpt lat="43.76582" lon="3.69544">
        <ele>294.6576</ele>
        <time>2015-03-21T13:20:53Z</time>
      </trkpt>
      <trkpt lat="43.76581" lon="3.69559">
        <ele>292.987</ele>
        <time>2015-03-21T13:21:03Z</time>
      </trkpt>
      <trkpt lat="43.7658" lon="3.69561">
        <ele>292.987</ele>
        <time>2015-03-21T13:21:03Z</time>
      </trkpt>
      <trkpt lat="43.76567" lon="3.69622">
        <ele>291.32275</ele>
        <time>2015-03-21T13:21:46Z</time>
      </trkpt>
      <trkpt lat="43.76562" lon="3.69637">
        <ele>289.8986</ele>
        <time>2015-03-21T13:21:52Z</time>
      </trkpt>
      <trkpt lat="43.76558" lon="3.69645">
        <ele>289.8986</ele>
        <time>2015-03-21T13:21:53Z</time>
      </trkpt>
      <trkpt lat="43.76551" lon="3.69667">
        <ele>288.6277</ele>
        <time>2015-03-21T13:22:06Z</time>
      </trkpt>
      <trkpt lat="43.76549" lon="3.69668">
        <ele>288.6277</ele>
        <time>2015-03-21T13:22:06Z</time>
      </trkpt>
      <trkpt lat="43.76525" lon="3.69692">
        <ele>287.67404</ele>
        <time>2015-03-21T13:22:34Z</time>
      </trkpt>
      <trkpt lat="43.76497" lon="3.69704">
        <ele>286.6266</ele>
        <time>2015-03-21T13:22:51Z</time>
      </trkpt>
      <trkpt lat="43.76495" lon="3.69705">
        <ele>286.6266</ele>
        <time>2015-03-21T13:22:56Z</time>
      </trkpt>
      <trkpt lat="43.76489" lon="3.69708">
        <ele>286.6266</ele>
        <time>2015-03-21T13:23:01Z</time>
      </trkpt>
      <trkpt lat="43.76485" lon="3.69715">
        <ele>285.50818</ele>
        <time>2015-03-21T13:23:08Z</time>
      </trkpt>
      <trkpt lat="43.76471" lon="3.69735">
        <ele>284.35437</ele>
        <time>2015-03-21T13:23:31Z</time>
      </trkpt>
      <trkpt lat="43.76437" lon="3.69782">
        <ele>282.82358</ele>
        <time>2015-03-21T13:23:53Z</time>
      </trkpt>
      <trkpt lat="43.76422" lon="3.6979">
        <ele>281.46484</ele>
        <time>2015-03-21T13:24:05Z</time>
      </trkpt>
      <trkpt lat="43.76411" lon="3.69798">
        <ele>280.23868</ele>
        <time>2015-03-21T13:24:21Z</time>
      </trkpt>
      <trkpt lat="43.76364" lon="3.69832">
        <ele>278.7622</ele>
        <time>2015-03-21T13:24:52Z</time>
      </trkpt>
      <trkpt lat="43.76363" lon="3.69833">
        <ele>278.7622</ele>
        <time>2015-03-21T13:24:59Z</time>
      </trkpt>
      <trkpt lat="43.76356" lon="3.69839">
        <ele>277.43066</ele>
        <time>2015-03-21T13:24:59Z</time>
      </trkpt>
      <trkpt lat="43.76343" lon="3.69847">
        <ele>276.2062</ele>
        <time>2015-03-21T13:25:13Z</time>
      </trkpt>
      <trkpt lat="43.76331" lon="3.69858">
        <ele>275.16873</ele>
        <time>2015-03-21T13:25:18Z</time>
      </trkpt>
      <trkpt lat="43.76312" lon="3.69876">
        <ele>274.33395</ele>
        <time>2015-03-21T13:25:40Z</time>
      </trkpt>
      <trkpt lat="43.76288" lon="3.69887">
        <ele>273.62936</ele>
        <time>2015-03-21T13:25:56Z</time>
      </trkpt>
      <trkpt lat="43.76281" lon="3.69892">
        <ele>273.62936</ele>
        <time>2015-03-21T13:26:02Z</time>
      </trkpt>
      <trkpt lat="43.76274" lon="3.69914">
        <ele>273.117</ele>
        <time>2015-03-21T13:26:15Z</time>
      </trkpt>
      <trkpt lat="43.76273" lon="3.6993">
        <ele>272.7385</ele>
        <time>2015-03-21T13:26:27Z</time>
      </trkpt>
      <trkpt lat="43.7627" lon="3.6995">
        <ele>272.46814</ele>
        <time>2015-03-21T13:26:27Z</time>
      </trkpt>
      <trkpt lat="43.76269" lon="3.69952">
        <ele>272.46814</ele>
        <time>2015-03-21T13:26:32Z</time>
      </trkpt>
      <trkpt lat="43.7626" lon="3.69993">
        <ele>272.2097</ele>
        <time>2015-03-21T13:26:51Z</time>
      </trkpt>
      <trkpt lat="43.7626" lon="3.69996">
        <ele>272.2097</ele>
        <time>2015-03-21T13:26:53Z</time>
      </trkpt>
      <trkpt lat="43.76255" lon="3.70029">
        <ele>271.94595</ele>
        <time>2015-03-21T13:27:11Z</time>
      </trkpt>
      <trkpt lat="43.76248" lon="3.70041">
        <ele>271.7763</ele>
        <time>2015-03-21T13:27:19Z</time>
      </trkpt>
      <trkpt lat="43.76233" lon="3.7007">
        <ele>271.57635</ele>
        <time>2015-03-21T13:27:37Z</time>
      </trkpt>
      <trkpt lat="43.76229" lon="3.70083">
        <ele>271.33176</ele>
        <time>2015-03-21T13:27:40Z</time>
      </trkpt>
      <trkpt lat="43.76223" lon="3.70102">
        <ele>271.1591</ele>
        <time>2015-03-21T13:27:51Z</time>
      </trkpt>
      <trkpt lat="43.76223" lon="3.70106">
        <ele>271.1591</ele>
        <time>2015-03-21T13:28:00Z</time>
      </trkpt>
      <trkpt lat="43.76226" lon="3.7012">
        <ele>271.05084</ele>
        <time>2015-03-21T13:28:00Z</time>
      </trkpt>
      <trkpt lat="43.76227" lon="3.70138">
        <ele>270.9711</ele>
        <time>2015-03-21T13:28:10Z</time>
      </trkpt>
      <trkpt lat="43.76229" lon="3.70142">
        <ele>270.9711</ele>
        <time>2015-03-21T13:28:17Z</time>
      </trkpt>
      <trkpt lat="43.76242" lon="3.70214">
        <ele>270.4973</ele>
        <time>2015-03-21T13:28:51Z</time>
      </trkpt>
      <trkpt lat="43.76242" lon="3.70217">
        <ele>270.4973</ele>
        <time>2015-03-21T13:28:56Z</time>
      </trkpt>
      <trkpt lat="43.76245" lon="3.70259">
        <ele>270.17596</ele>
        <time>2015-03-21T13:29:18Z</time>
      </trkpt>
      <trkpt lat="43.76245" lon="3.70271">
        <ele>270.17596</ele>
        <time>2015-03-21T13:29:18Z</time>
      </trkpt>
      <trkpt lat="43.76242" lon="3.70319">
        <ele>270.1094</ele>
        <time>2015-03-21T13:29:50Z</time>
      </trkpt>
      <trkpt lat="43.76238" lon="3.70325">
        <ele>270.1094</ele>
        <time>2015-03-21T13:29:53Z</time>
      </trkpt>
      <trkpt lat="43.76235" lon="3.70333">
        <ele>270.24762</ele>
        <time>2015-03-21T13:30:00Z</time>
      </trkpt>
      <trkpt lat="43.76208" lon="3.70367">
        <ele>270.5294</ele>
        <time>2015-03-21T13:30:25Z</time>
      </trkpt>
      <trkpt lat="43.76206" lon="3.7037">
        <ele>270.5294</ele>
        <time>2015-03-21T13:30:25Z</time>
      </trkpt>
      <trkpt lat="43.76193" lon="3.70383">
        <ele>270.99847</ele>
        <time>2015-03-21T13:30:36Z</time>
      </trkpt>
      <trkpt lat="43.76187" lon="3.70389">
        <ele>270.99847</ele>
        <time>2015-03-21T13:30:44Z</time>
      </trkpt>
      <trkpt lat="43.76168" lon="3.70404">
        <ele>271.7238</ele>
        <time>2015-03-21T13:30:56Z</time>
      </trkpt>
      <trkpt lat="43.76166" lon="3.70407">
        <ele>271.7238</ele>
        <time>2015-03-21T13:31:01Z</time>
      </trkpt>
      <trkpt lat="43.76157" lon="3.70417">
        <ele>272.49463</ele>
        <time>2015-03-21T13:31:06Z</time>
      </trkpt>
      <trkpt lat="43.76145" lon="3.70428">
        <ele>273.25995</ele>
        <time>2015-03-21T13:31:18Z</time>
      </trkpt>
      <trkpt lat="43.76108" lon="3.70488">
        <ele>273.95798</ele>
        <time>2015-03-21T13:31:57Z</time>
      </trkpt>
      <trkpt lat="43.76107" lon="3.70489">
        <ele>273.95798</ele>
        <time>2015-03-21T13:31:58Z</time>
      </trkpt>
      <trkpt lat="43.76077" lon="3.70552">
        <ele>274.5319</ele>
        <time>2015-03-21T13:32:45Z</time>
      </trkpt>
      <trkpt lat="43.76066" lon="3.70552">
        <ele>275.10226</ele>
        <time>2015-03-21T13:32:51Z</time>
      </trkpt>
      <trkpt lat="43.76063" lon="3.70553">
        <ele>275.10226</ele>
        <time>2015-03-21T13:32:53Z</time>
      </trkpt>
      <trkpt lat="43.76055" lon="3.70557">
        <ele>275.59372</ele>
        <time>2015-03-21T13:33:08Z</time>
      </trkpt>
      <trkpt lat="43.76044" lon="3.7056">
        <ele>276.05188</ele>
        <time>2015-03-21T13:33:08Z</time>
      </trkpt>
      <trkpt lat="43.76003" lon="3.70588">
        <ele>276.46167</ele>
        <time>2015-03-21T13:33:50Z</time>
      </trkpt>
      <trkpt lat="43.75996" lon="3.70598">
        <ele>276.9678</ele>
        <time>2015-03-21T13:33:50Z</time>
      </trkpt>
      <trkpt lat="43.75992" lon="3.70598">
        <ele>276.9678</ele>
        <time>2015-03-21T13:33:58Z</time>
      </trkpt>
      <trkpt lat="43.75986" lon="3.706">
        <ele>277.4881</ele>
        <time>2015-03-21T13:33:58Z</time>
      </trkpt>
      <trkpt lat="43.75964" lon="3.70616">
        <ele>277.9464</ele>
        <time>2015-03-21T13:34:15Z</time>
      </trkpt>
      <trkpt lat="43.75956" lon="3.70619">
        <ele>277.9464</ele>
        <time>2015-03-21T13:34:21Z</time>
      </trkpt>
      <trkpt lat="43.75946" lon="3.7062">
        <ele>278.44543</ele>
        <time>2015-03-21T13:34:33Z</time>
      </trkpt>
      <trkpt lat="43.75912" lon="3.70629">
        <ele>278.40298</ele>
        <time>2015-03-21T13:34:56Z</time>
      </trkpt>
      <trkpt lat="43.75903" lon="3.70631">
        <ele>278.40298</ele>
        <time>2015-03-21T13:35:02Z</time>
      </trkpt>
      <trkpt lat="43.75894" lon="3.70635">
        <ele>278.33328</ele>
        <time>2015-03-21T13:35:05Z</time>
      </trkpt>
      <trkpt lat="43.7587" lon="3.70649">
        <ele>278.12204</ele>
        <time>2015-03-21T13:35:27Z</time>
      </trkpt>
      <trkpt lat="43.75864" lon="3.70653">
        <ele>278.12204</ele>
        <time>2015-03-21T13:35:30Z</time>
      </trkpt>
      <trkpt lat="43.75845" lon="3.70673">
        <ele>277.80804</ele>
        <time>2015-03-21T13:35:45Z</time>
      </trkpt>
      <trkpt lat="43.75832" lon="3.70682">
        <ele>277.51404</ele>
        <time>2015-03-21T13:35:51Z</time>
      </trkpt>
      <trkpt lat="43.75829" lon="3.70683">
        <ele>277.51404</ele>
        <time>2015-03-21T13:35:53Z</time>
      </trkpt>
      <trkpt lat="43.75823" lon="3.70687">
        <ele>277.19522</ele>
        <time>2015-03-21T13:36:07Z</time>
      </trkpt>
      <trkpt lat="43.75813" lon="3.70695">
        <ele>276.8968</ele>
        <time>2015-03-21T13:36:17Z</time>
      </trkpt>
      <trkpt lat="43.75799" lon="3.70701">
        <ele>276.3291</ele>
        <time>2015-03-21T13:36:23Z</time>
      </trkpt>
      <trkpt lat="43.75787" lon="3.7071">
        <ele>275.77225</ele>
        <time>2015-03-21T13:36:37Z</time>
      </trkpt>
      <trkpt lat="43.75774" lon="3.70726">
        <ele>275.08224</ele>
        <time>2015-03-21T13:36:46Z</time>
      </trkpt>
      <trkpt lat="43.75755" lon="3.70746">
        <ele>274.47205</ele>
        <time>2015-03-21T13:36:52Z</time>
      </trkpt>
      <trkpt lat="43.75753" lon="3.70747">
        <ele>274.47205</ele>
        <time>2015-03-21T13:36:53Z</time>
      </trkpt>
      <trkpt lat="43.75703" lon="3.70794">
        <ele>273.49017</ele>
        <time>2015-03-21T13:37:33Z</time>
      </trkpt>
      <trkpt lat="43.7569" lon="3.70808">
        <ele>272.48328</ele>
        <time>2015-03-21T13:37:47Z</time>
      </trkpt>
      <trkpt lat="43.75673" lon="3.70831">
        <ele>271.4123</ele>
        <time>2015-03-21T13:38:06Z</time>
      </trkpt>
      <trkpt lat="43.75665" lon="3.70839">
        <ele>270.4142</ele>
        <time>2015-03-21T13:38:06Z</time>
      </trkpt>
      <trkpt lat="43.75664" lon="3.7084">
        <ele>270.4142</ele>
        <time>2015-03-21T13:38:07Z</time>
      </trkpt>
      <trkpt lat="43.75645" lon="3.70863">
        <ele>269.47162</ele>
        <time>2015-03-21T13:38:24Z</time>
      </trkpt>
      <trkpt lat="43.75635" lon="3.70874">
        <ele>268.53937</ele>
        <time>2015-03-21T13:38:36Z</time>
      </trkpt>
      <trkpt lat="43.75631" lon="3.70878">
        <ele>268.53937</ele>
        <time>2015-03-21T13:38:44Z</time>
      </trkpt>
      <trkpt lat="43.75615" lon="3.709">
        <ele>267.73422</ele>
        <time>2015-03-21T13:38:53Z</time>
      </trkpt>
      <trkpt lat="43.75606" lon="3.70907">
        <ele>267.04858</ele>
        <time>2015-03-21T13:39:10Z</time>
      </trkpt>
      <trkpt lat="43.75593" lon="3.70924">
        <ele>266.6625</ele>
        <time>2015-03-21T13:39:15Z</time>
      </trkpt>
      <trkpt lat="43.75582" lon="3.70942">
        <ele>266.35278</ele>
        <time>2015-03-21T13:39:23Z</time>
      </trkpt>
      <trkpt lat="43.75578" lon="3.70948">
        <ele>266.35278</ele>
        <time>2015-03-21T13:39:29Z</time>
      </trkpt>
      <trkpt lat="43.75573" lon="3.70955">
        <ele>266.14304</ele>
        <time>2015-03-21T13:39:33Z</time>
      </trkpt>
      <trkpt lat="43.75571" lon="3.70958">
        <ele>266.14304</ele>
        <time>2015-03-21T13:39:39Z</time>
      </trkpt>
      <trkpt lat="43.75566" lon="3.70965">
        <ele>265.8242</ele>
        <time>2015-03-21T13:39:43Z</time>
      </trkpt>
      <trkpt lat="43.75562" lon="3.70971">
        <ele>265.8242</ele>
        <time>2015-03-21T13:39:48Z</time>
      </trkpt>
      <trkpt lat="43.75561" lon="3.70973">
        <ele>265.8242</ele>
        <time>2015-03-21T13:39:53Z</time>
      </trkpt>
      <trkpt lat="43.7556" lon="3.70976">
        <ele>265.0443</ele>
        <time>2015-03-21T13:39:58Z</time>
      </trkpt>
      <trkpt lat="43.75557" lon="3.70981">
        <ele>265.0443</ele>
        <time>2015-03-21T13:40:03Z</time>
      </trkpt>
      <trkpt lat="43.75552" lon="3.70984">
        <ele>264.18478</ele>
        <time>2015-03-21T13:40:08Z</time>
      </trkpt>
      <trkpt lat="43.75547" lon="3.70989">
        <ele>264.18478</ele>
        <time>2015-03-21T13:40:13Z</time>
      </trkpt>
      <trkpt lat="43.75542" lon="3.70994">
        <ele>263.42618</ele>
        <time>2015-03-21T13:40:18Z</time>
      </trkpt>
      <trkpt lat="43.75538" lon="3.70997">
        <ele>263.42618</ele>
        <time>2015-03-21T13:40:23Z</time>
      </trkpt>
      <trkpt lat="43.75532" lon="3.71004">
        <ele>262.7914</ele>
        <time>2015-03-21T13:40:28Z</time>
      </trkpt>
      <trkpt lat="43.75524" lon="3.71009">
        <ele>262.7914</ele>
        <time>2015-03-21T13:40:33Z</time>
      </trkpt>
      <trkpt lat="43.75517" lon="3.71014">
        <ele>262.17166</ele>
        <time>2015-03-21T13:40:38Z</time>
      </trkpt>
      <trkpt lat="43.75509" lon="3.71013">
        <ele>262.17166</ele>
        <time>2015-03-21T13:40:43Z</time>
      </trkpt>
      <trkpt lat="43.75503" lon="3.71013">
        <ele>261.53802</ele>
        <time>2015-03-21T13:40:48Z</time>
      </trkpt>
      <trkpt lat="43.75495" lon="3.71011">
        <ele>261.53802</ele>
        <time>2015-03-21T13:40:53Z</time>
      </trkpt>
      <trkpt lat="43.75488" lon="3.71011">
        <ele>260.90707</ele>
        <time>2015-03-21T13:40:58Z</time>
      </trkpt>
      <trkpt lat="43.75481" lon="3.71015">
        <ele>260.90707</ele>
        <time>2015-03-21T13:41:03Z</time>
      </trkpt>
      <trkpt lat="43.75473" lon="3.71019">
        <ele>260.35162</ele>
        <time>2015-03-21T13:41:08Z</time>
      </trkpt>
      <trkpt lat="43.75467" lon="3.7102">
        <ele>260.35162</ele>
        <time>2015-03-21T13:41:13Z</time>
      </trkpt>
      <trkpt lat="43.7546" lon="3.71019">
        <ele>259.82373</ele>
        <time>2015-03-21T13:41:18Z</time>
      </trkpt>
      <trkpt lat="43.75453" lon="3.71021">
        <ele>259.82373</ele>
        <time>2015-03-21T13:41:23Z</time>
      </trkpt>
      <trkpt lat="43.75446" lon="3.71019">
        <ele>259.2644</ele>
        <time>2015-03-21T13:41:28Z</time>
      </trkpt>
      <trkpt lat="43.75438" lon="3.71019">
        <ele>259.2644</ele>
        <time>2015-03-21T13:41:33Z</time>
      </trkpt>
      <trkpt lat="43.75432" lon="3.71022">
        <ele>258.69107</ele>
        <time>2015-03-21T13:41:38Z</time>
      </trkpt>
      <trkpt lat="43.75427" lon="3.71024">
        <ele>258.69107</ele>
        <time>2015-03-21T13:41:43Z</time>
      </trkpt>
      <trkpt lat="43.75422" lon="3.71024">
        <ele>258.2064</ele>
        <time>2015-03-21T13:41:48Z</time>
      </trkpt>
      <trkpt lat="43.75416" lon="3.7102">
        <ele>258.2064</ele>
        <time>2015-03-21T13:41:53Z</time>
      </trkpt>
      <trkpt lat="43.75415" lon="3.71021">
        <ele>258.2064</ele>
        <time>2015-03-21T13:41:58Z</time>
      </trkpt>
      <trkpt lat="43.75413" lon="3.71024">
        <ele>257.96283</ele>
        <time>2015-03-21T13:42:18Z</time>
      </trkpt>
      <trkpt lat="43.7541" lon="3.7103">
        <ele>257.96283</ele>
        <time>2015-03-21T13:42:23Z</time>
      </trkpt>
      <trkpt lat="43.75408" lon="3.7104">
        <ele>257.79837</ele>
        <time>2015-03-21T13:42:28Z</time>
      </trkpt>
      <trkpt lat="43.75407" lon="3.7105">
        <ele>257.79837</ele>
        <time>2015-03-21T13:42:33Z</time>
      </trkpt>
      <trkpt lat="43.75406" lon="3.71061">
        <ele>257.57693</ele>
        <time>2015-03-21T13:42:38Z</time>
      </trkpt>
      <trkpt lat="43.75406" lon="3.7107">
        <ele>257.57693</ele>
        <time>2015-03-21T13:42:43Z</time>
      </trkpt>
      <trkpt lat="43.75405" lon="3.71079">
        <ele>257.30243</ele>
        <time>2015-03-21T13:42:48Z</time>
      </trkpt>
      <trkpt lat="43.75405" lon="3.71087">
        <ele>257.30243</ele>
        <time>2015-03-21T13:42:53Z</time>
      </trkpt>
      <trkpt lat="43.75405" lon="3.71096">
        <ele>256.96408</ele>
        <time>2015-03-21T13:42:58Z</time>
      </trkpt>
      <trkpt lat="43.75408" lon="3.71108">
        <ele>256.96408</ele>
        <time>2015-03-21T13:43:03Z</time>
      </trkpt>
      <trkpt lat="43.75409" lon="3.71119">
        <ele>256.53766</ele>
        <time>2015-03-21T13:43:08Z</time>
      </trkpt>
      <trkpt lat="43.75411" lon="3.71127">
        <ele>256.53766</ele>
        <time>2015-03-21T13:43:13Z</time>
      </trkpt>
      <trkpt lat="43.75412" lon="3.71136">
        <ele>256.01544</ele>
        <time>2015-03-21T13:43:18Z</time>
      </trkpt>
      <trkpt lat="43.75412" lon="3.71144">
        <ele>256.01544</ele>
        <time>2015-03-21T13:43:23Z</time>
      </trkpt>
      <trkpt lat="43.75414" lon="3.71154">
        <ele>255.43367</ele>
        <time>2015-03-21T13:43:28Z</time>
      </trkpt>
      <trkpt lat="43.75414" lon="3.71161">
        <ele>255.43367</ele>
        <time>2015-03-21T13:43:33Z</time>
      </trkpt>
      <trkpt lat="43.75417" lon="3.71172">
        <ele>254.79729</ele>
        <time>2015-03-21T13:43:38Z</time>
      </trkpt>
      <trkpt lat="43.75418" lon="3.7118">
        <ele>254.79729</ele>
        <time>2015-03-21T13:43:43Z</time>
      </trkpt>
      <trkpt lat="43.7542" lon="3.7119">
        <ele>254.05336</ele>
        <time>2015-03-21T13:43:48Z</time>
      </trkpt>
      <trkpt lat="43.75424" lon="3.71198">
        <ele>254.05336</ele>
        <time>2015-03-21T13:43:53Z</time>
      </trkpt>
      <trkpt lat="43.75427" lon="3.71204">
        <ele>253.16756</ele>
        <time>2015-03-21T13:43:58Z</time>
      </trkpt>
      <trkpt lat="43.75429" lon="3.71209">
        <ele>253.16756</ele>
        <time>2015-03-21T13:44:03Z</time>
      </trkpt>
      <trkpt lat="43.75433" lon="3.71215">
        <ele>252.28133</ele>
        <time>2015-03-21T13:44:08Z</time>
      </trkpt>
      <trkpt lat="43.75433" lon="3.71224">
        <ele>252.28133</ele>
        <time>2015-03-21T13:44:13Z</time>
      </trkpt>
      <trkpt lat="43.75438" lon="3.71235">
        <ele>251.43932</ele>
        <time>2015-03-21T13:44:18Z</time>
      </trkpt>
      <trkpt lat="43.75443" lon="3.71244">
        <ele>251.43932</ele>
        <time>2015-03-21T13:44:23Z</time>
      </trkpt>
      <trkpt lat="43.75446" lon="3.71253">
        <ele>250.50975</ele>
        <time>2015-03-21T13:44:28Z</time>
      </trkpt>
      <trkpt lat="43.75447" lon="3.71259">
        <ele>250.50975</ele>
        <time>2015-03-21T13:44:33Z</time>
      </trkpt>
      <trkpt lat="43.7545" lon="3.71267">
        <ele>249.48605</ele>
        <time>2015-03-21T13:44:38Z</time>
      </trkpt>
      <trkpt lat="43.75453" lon="3.71272">
        <ele>249.48605</ele>
        <time>2015-03-21T13:44:43Z</time>
      </trkpt>
      <trkpt lat="43.75457" lon="3.7128">
        <ele>248.30475</ele>
        <time>2015-03-21T13:44:48Z</time>
      </trkpt>
      <trkpt lat="43.75459" lon="3.7129">
        <ele>248.30475</ele>
        <time>2015-03-21T13:44:53Z</time>
      </trkpt>
      <trkpt lat="43.75454" lon="3.71301">
        <ele>246.97948</ele>
        <time>2015-03-21T13:44:58Z</time>
      </trkpt>
      <trkpt lat="43.75452" lon="3.7131">
        <ele>246.97948</ele>
        <time>2015-03-21T13:45:03Z</time>
      </trkpt>
      <trkpt lat="43.75451" lon="3.71318">
        <ele>245.48</ele>
        <time>2015-03-21T13:45:08Z</time>
      </trkpt>
      <trkpt lat="43.75447" lon="3.71325">
        <ele>245.48</ele>
        <time>2015-03-21T13:45:13Z</time>
      </trkpt>
      <trkpt lat="43.75442" lon="3.7133">
        <ele>243.85078</ele>
        <time>2015-03-21T13:45:18Z</time>
      </trkpt>
      <trkpt lat="43.75438" lon="3.71335">
        <ele>243.85078</ele>
        <time>2015-03-21T13:45:23Z</time>
      </trkpt>
      <trkpt lat="43.75433" lon="3.71339">
        <ele>242.07578</ele>
        <time>2015-03-21T13:45:28Z</time>
      </trkpt>
      <trkpt lat="43.7543" lon="3.71344">
        <ele>242.07578</ele>
        <time>2015-03-21T13:45:33Z</time>
      </trkpt>
      <trkpt lat="43.75427" lon="3.71347">
        <ele>242.07578</ele>
        <time>2015-03-21T13:45:38Z</time>
      </trkpt>
      <trkpt lat="43.75425" lon="3.71351">
        <ele>240.22685</ele>
        <time>2015-03-21T13:45:43Z</time>
      </trkpt>
      <trkpt lat="43.7542" lon="3.71359">
        <ele>240.22685</ele>
        <time>2015-03-21T13:45:48Z</time>
      </trkpt>
      <trkpt lat="43.75415" lon="3.71365">
        <ele>238.65901</ele>
        <time>2015-03-21T13:45:53Z</time>
      </trkpt>
      <trkpt lat="43.75412" lon="3.71375">
        <ele>238.65901</ele>
        <time>2015-03-21T13:45:58Z</time>
      </trkpt>
      <trkpt lat="43.75414" lon="3.71383">
        <ele>237.29683</ele>
        <time>2015-03-21T13:46:03Z</time>
      </trkpt>
      <trkpt lat="43.75415" lon="3.71393">
        <ele>237.29683</ele>
        <time>2015-03-21T13:46:08Z</time>
      </trkpt>
      <trkpt lat="43.75414" lon="3.71402">
        <ele>235.99767</ele>
        <time>2015-03-21T13:46:13Z</time>
      </trkpt>
      <trkpt lat="43.75413" lon="3.71411">
        <ele>235.99767</ele>
        <time>2015-03-21T13:46:18Z</time>
      </trkpt>
      <trkpt lat="43.75414" lon="3.71416">
        <ele>234.8021</ele>
        <time>2015-03-21T13:46:23Z</time>
      </trkpt>
      <trkpt lat="43.75416" lon="3.71426">
        <ele>234.8021</ele>
        <time>2015-03-21T13:46:28Z</time>
      </trkpt>
      <trkpt lat="43.75416" lon="3.71437">
        <ele>233.66089</ele>
        <time>2015-03-21T13:46:33Z</time>
      </trkpt>
      <trkpt lat="43.75413" lon="3.71446">
        <ele>233.66089</ele>
        <time>2015-03-21T13:46:38Z</time>
      </trkpt>
      <trkpt lat="43.75415" lon="3.71452">
        <ele>232.60022</ele>
        <time>2015-03-21T13:46:43Z</time>
      </trkpt>
      <trkpt lat="43.75416" lon="3.71462">
        <ele>232.60022</ele>
        <time>2015-03-21T13:46:48Z</time>
      </trkpt>
      <trkpt lat="43.75416" lon="3.71474">
        <ele>231.73058</ele>
        <time>2015-03-21T13:46:53Z</time>
      </trkpt>
      <trkpt lat="43.75417" lon="3.71483">
        <ele>231.73058</ele>
        <time>2015-03-21T13:46:58Z</time>
      </trkpt>
      <trkpt lat="43.75417" lon="3.71492">
        <ele>231.13925</ele>
        <time>2015-03-21T13:47:03Z</time>
      </trkpt>
      <trkpt lat="43.75413" lon="3.71498">
        <ele>231.13925</ele>
        <time>2015-03-21T13:47:08Z</time>
      </trkpt>
      <trkpt lat="43.75405" lon="3.71501">
        <ele>230.79103</ele>
        <time>2015-03-21T13:47:13Z</time>
      </trkpt>
      <trkpt lat="43.75401" lon="3.71507">
        <ele>230.79103</ele>
        <time>2015-03-21T13:47:18Z</time>
      </trkpt>
      <trkpt lat="43.75401" lon="3.71514">
        <ele>230.60933</ele>
        <time>2015-03-21T13:47:23Z</time>
      </trkpt>
      <trkpt lat="43.75397" lon="3.71522">
        <ele>230.60933</ele>
        <time>2015-03-21T13:47:28Z</time>
      </trkpt>
      <trkpt lat="43.75394" lon="3.71535">
        <ele>230.62352</ele>
        <time>2015-03-21T13:47:33Z</time>
      </trkpt>
      <trkpt lat="43.7539" lon="3.71544">
        <ele>230.62352</ele>
        <time>2015-03-21T13:47:38Z</time>
      </trkpt>
      <trkpt lat="43.75386" lon="3.71553">
        <ele>230.77377</ele>
        <time>2015-03-21T13:47:43Z</time>
      </trkpt>
      <trkpt lat="43.75382" lon="3.71558">
        <ele>230.77377</ele>
        <time>2015-03-21T13:47:48Z</time>
      </trkpt>
      <trkpt lat="43.75378" lon="3.71567">
        <ele>231.03307</ele>
        <time>2015-03-21T13:47:53Z</time>
      </trkpt>
      <trkpt lat="43.75374" lon="3.71571">
        <ele>231.03307</ele>
        <time>2015-03-21T13:47:58Z</time>
      </trkpt>
      <trkpt lat="43.75369" lon="3.71577">
        <ele>231.36162</ele>
        <time>2015-03-21T13:48:03Z</time>
      </trkpt>
      <trkpt lat="43.75364" lon="3.71582">
        <ele>231.36162</ele>
        <time>2015-03-21T13:48:08Z</time>
      </trkpt>
      <trkpt lat="43.7536" lon="3.71587">
        <ele>231.72237</ele>
        <time>2015-03-21T13:48:13Z</time>
      </trkpt>
      <trkpt lat="43.75354" lon="3.7159">
        <ele>231.72237</ele>
        <time>2015-03-21T13:48:18Z</time>
      </trkpt>
      <trkpt lat="43.75349" lon="3.71592">
        <ele>232.0953</ele>
        <time>2015-03-21T13:48:23Z</time>
      </trkpt>
      <trkpt lat="43.75344" lon="3.71592">
        <ele>232.0953</ele>
        <time>2015-03-21T13:48:28Z</time>
      </trkpt>
      <trkpt lat="43.75337" lon="3.71597">
        <ele>232.53392</ele>
        <time>2015-03-21T13:48:33Z</time>
      </trkpt>
      <trkpt lat="43.75332" lon="3.71599">
        <ele>232.53392</ele>
        <time>2015-03-21T13:48:38Z</time>
      </trkpt>
      <trkpt lat="43.75328" lon="3.71598">
        <ele>232.88582</ele>
        <time>2015-03-21T13:48:43Z</time>
      </trkpt>
      <trkpt lat="43.75319" lon="3.71599">
        <ele>233.29836</ele>
        <time>2015-03-21T13:48:48Z</time>
      </trkpt>
      <trkpt lat="43.75311" lon="3.71602">
        <ele>233.29836</ele>
        <time>2015-03-21T13:48:53Z</time>
      </trkpt>
      <trkpt lat="43.75304" lon="3.71605">
        <ele>233.76378</ele>
        <time>2015-03-21T13:48:58Z</time>
      </trkpt>
      <trkpt lat="43.753" lon="3.7161">
        <ele>233.76378</ele>
        <time>2015-03-21T13:49:03Z</time>
      </trkpt>
      <trkpt lat="43.75295" lon="3.71612">
        <ele>234.31801</ele>
        <time>2015-03-21T13:49:08Z</time>
      </trkpt>
      <trkpt lat="43.75288" lon="3.71613">
        <ele>234.31801</ele>
        <time>2015-03-21T13:49:13Z</time>
      </trkpt>
      <trkpt lat="43.75282" lon="3.71616">
        <ele>234.92212</ele>
        <time>2015-03-21T13:49:18Z</time>
      </trkpt>
      <trkpt lat="43.75277" lon="3.71619">
        <ele>234.92212</ele>
        <time>2015-03-21T13:49:23Z</time>
      </trkpt>
      <trkpt lat="43.75271" lon="3.71621">
        <ele>235.51112</ele>
        <time>2015-03-21T13:49:28Z</time>
      </trkpt>
      <trkpt lat="43.75263" lon="3.71622">
        <ele>235.51112</ele>
        <time>2015-03-21T13:49:33Z</time>
      </trkpt>
      <trkpt lat="43.75254" lon="3.71622">
        <ele>236.16899</ele>
        <time>2015-03-21T13:49:38Z</time>
      </trkpt>
      <trkpt lat="43.75245" lon="3.71621">
        <ele>236.77171</ele>
        <time>2015-03-21T13:49:43Z</time>
      </trkpt>
      <trkpt lat="43.75239" lon="3.71627">
        <ele>236.77171</ele>
        <time>2015-03-21T13:49:48Z</time>
      </trkpt>
      <trkpt lat="43.75232" lon="3.71628">
        <ele>237.31984</ele>
        <time>2015-03-21T13:49:53Z</time>
      </trkpt>
      <trkpt lat="43.75227" lon="3.71628">
        <ele>237.31984</ele>
        <time>2015-03-21T13:49:58Z</time>
      </trkpt>
      <trkpt lat="43.75223" lon="3.71629">
        <ele>237.31984</ele>
        <time>2015-03-21T13:50:07Z</time>
      </trkpt>
      <trkpt lat="43.75204" lon="3.71623">
        <ele>238.41942</ele>
        <time>2015-03-21T13:50:18Z</time>
      </trkpt>
      <trkpt lat="43.75203" lon="3.71623">
        <ele>238.41942</ele>
        <time>2015-03-21T13:50:18Z</time>
      </trkpt>
      <trkpt lat="43.75197" lon="3.71628">
        <ele>238.41942</ele>
        <time>2015-03-21T13:50:23Z</time>
      </trkpt>
      <trkpt lat="43.75194" lon="3.71629">
        <ele>239.85233</ele>
        <time>2015-03-21T13:50:28Z</time>
      </trkpt>
      <trkpt lat="43.75192" lon="3.71629">
        <ele>239.85233</ele>
        <time>2015-03-21T13:50:33Z</time>
      </trkpt>
      <trkpt lat="43.75182" lon="3.71632">
        <ele>241.35793</ele>
        <time>2015-03-21T13:50:45Z</time>
      </trkpt>
      <trkpt lat="43.75179" lon="3.71633">
        <ele>241.35793</ele>
        <time>2015-03-21T13:50:48Z</time>
      </trkpt>
      <trkpt lat="43.75172" lon="3.71633">
        <ele>242.82437</ele>
        <time>2015-03-21T13:50:53Z</time>
      </trkpt>
      <trkpt lat="43.75166" lon="3.71633">
        <ele>242.82437</ele>
        <time>2015-03-21T13:50:58Z</time>
      </trkpt>
      <trkpt lat="43.75161" lon="3.71633">
        <ele>244.23471</ele>
        <time>2015-03-21T13:51:03Z</time>
      </trkpt>
      <trkpt lat="43.75156" lon="3.7164">
        <ele>244.23471</ele>
        <time>2015-03-21T13:51:08Z</time>
      </trkpt>
      <trkpt lat="43.7515" lon="3.71644">
        <ele>245.54468</ele>
        <time>2015-03-21T13:51:13Z</time>
      </trkpt>
      <trkpt lat="43.75144" lon="3.71648">
        <ele>245.54468</ele>
        <time>2015-03-21T13:51:18Z</time>
      </trkpt>
      <trkpt lat="43.75138" lon="3.71652">
        <ele>246.7425</ele>
        <time>2015-03-21T13:51:23Z</time>
      </trkpt>
      <trkpt lat="43.75131" lon="3.71655">
        <ele>246.7425</ele>
        <time>2015-03-21T13:51:28Z</time>
      </trkpt>
      <trkpt lat="43.75125" lon="3.71659">
        <ele>247.86093</ele>
        <time>2015-03-21T13:51:33Z</time>
      </trkpt>
      <trkpt lat="43.75123" lon="3.71663">
        <ele>247.86093</ele>
        <time>2015-03-21T13:51:38Z</time>
      </trkpt>
      <trkpt lat="43.75117" lon="3.71672">
        <ele>248.91628</ele>
        <time>2015-03-21T13:51:43Z</time>
      </trkpt>
      <trkpt lat="43.75112" lon="3.71678">
        <ele>248.91628</ele>
        <time>2015-03-21T13:51:48Z</time>
      </trkpt>
      <trkpt lat="43.75108" lon="3.71684">
        <ele>250.0104</ele>
        <time>2015-03-21T13:51:53Z</time>
      </trkpt>
      <trkpt lat="43.75105" lon="3.71692">
        <ele>250.0104</ele>
        <time>2015-03-21T13:51:58Z</time>
      </trkpt>
      <trkpt lat="43.75101" lon="3.71701">
        <ele>251.07924</ele>
        <time>2015-03-21T13:52:03Z</time>
      </trkpt>
      <trkpt lat="43.75097" lon="3.71708">
        <ele>251.07924</ele>
        <time>2015-03-21T13:52:08Z</time>
      </trkpt>
      <trkpt lat="43.75095" lon="3.71716">
        <ele>252.15005</ele>
        <time>2015-03-21T13:52:13Z</time>
      </trkpt>
      <trkpt lat="43.75094" lon="3.71724">
        <ele>252.15005</ele>
        <time>2015-03-21T13:52:18Z</time>
      </trkpt>
      <trkpt lat="43.75094" lon="3.71731">
        <ele>253.23383</ele>
        <time>2015-03-21T13:52:23Z</time>
      </trkpt>
      <trkpt lat="43.75096" lon="3.71742">
        <ele>253.23383</ele>
        <time>2015-03-21T13:52:28Z</time>
      </trkpt>
      <trkpt lat="43.75096" lon="3.7175">
        <ele>254.32646</ele>
        <time>2015-03-21T13:52:33Z</time>
      </trkpt>
      <trkpt lat="43.75095" lon="3.71759">
        <ele>254.32646</ele>
        <time>2015-03-21T13:52:38Z</time>
      </trkpt>
      <trkpt lat="43.75092" lon="3.71767">
        <ele>255.45306</ele>
        <time>2015-03-21T13:52:43Z</time>
      </trkpt>
      <trkpt lat="43.75092" lon="3.71772">
        <ele>255.45306</ele>
        <time>2015-03-21T13:52:48Z</time>
      </trkpt>
      <trkpt lat="43.75091" lon="3.7178">
        <ele>256.66574</ele>
        <time>2015-03-21T13:52:53Z</time>
      </trkpt>
      <trkpt lat="43.7509" lon="3.71788">
        <ele>256.66574</ele>
        <time>2015-03-21T13:52:58Z</time>
      </trkpt>
      <trkpt lat="43.75092" lon="3.71796">
        <ele>258.01273</ele>
        <time>2015-03-21T13:53:03Z</time>
      </trkpt>
      <trkpt lat="43.75092" lon="3.71806">
        <ele>258.01273</ele>
        <time>2015-03-21T13:53:08Z</time>
      </trkpt>
      <trkpt lat="43.75096" lon="3.71817">
        <ele>259.46634</ele>
        <time>2015-03-21T13:53:13Z</time>
      </trkpt>
      <trkpt lat="43.75098" lon="3.71827">
        <ele>259.46634</ele>
        <time>2015-03-21T13:53:18Z</time>
      </trkpt>
      <trkpt lat="43.75099" lon="3.71836">
        <ele>260.972</ele>
        <time>2015-03-21T13:53:23Z</time>
      </trkpt>
      <trkpt lat="43.75098" lon="3.71846">
        <ele>260.972</ele>
        <time>2015-03-21T13:53:28Z</time>
      </trkpt>
      <trkpt lat="43.75095" lon="3.71853">
        <ele>262.47906</ele>
        <time>2015-03-21T13:53:33Z</time>
      </trkpt>
      <trkpt lat="43.75088" lon="3.71857">
        <ele>262.47906</ele>
        <time>2015-03-21T13:53:38Z</time>
      </trkpt>
      <trkpt lat="43.75081" lon="3.71856">
        <ele>263.86874</ele>
        <time>2015-03-21T13:53:43Z</time>
      </trkpt>
      <trkpt lat="43.75077" lon="3.71862">
        <ele>263.86874</ele>
        <time>2015-03-21T13:53:48Z</time>
      </trkpt>
      <trkpt lat="43.75074" lon="3.71867">
        <ele>265.23315</ele>
        <time>2015-03-21T13:53:53Z</time>
      </trkpt>
      <trkpt lat="43.75073" lon="3.71877">
        <ele>265.23315</ele>
        <time>2015-03-21T13:53:58Z</time>
      </trkpt>
      <trkpt lat="43.75071" lon="3.71887">
        <ele>266.61462</ele>
        <time>2015-03-21T13:54:03Z</time>
      </trkpt>
      <trkpt lat="43.75071" lon="3.71896">
        <ele>266.61462</ele>
        <time>2015-03-21T13:54:08Z</time>
      </trkpt>
      <trkpt lat="43.75069" lon="3.71906">
        <ele>267.9228</ele>
        <time>2015-03-21T13:54:13Z</time>
      </trkpt>
      <trkpt lat="43.75069" lon="3.71916">
        <ele>267.9228</ele>
        <time>2015-03-21T13:54:18Z</time>
      </trkpt>
      <trkpt lat="43.75069" lon="3.71925">
        <ele>269.07422</ele>
        <time>2015-03-21T13:54:23Z</time>
      </trkpt>
      <trkpt lat="43.75069" lon="3.71938">
        <ele>269.99216</ele>
        <time>2015-03-21T13:54:28Z</time>
      </trkpt>
      <trkpt lat="43.75069" lon="3.71949">
        <ele>269.99216</ele>
        <time>2015-03-21T13:54:33Z</time>
      </trkpt>
      <trkpt lat="43.75071" lon="3.71959">
        <ele>270.8657</ele>
        <time>2015-03-21T13:54:38Z</time>
      </trkpt>
      <trkpt lat="43.75073" lon="3.71968">
        <ele>270.8657</ele>
        <time>2015-03-21T13:54:43Z</time>
      </trkpt>
      <trkpt lat="43.75076" lon="3.71976">
        <ele>271.66852</ele>
        <time>2015-03-21T13:54:48Z</time>
      </trkpt>
      <trkpt lat="43.75078" lon="3.71983">
        <ele>271.66852</ele>
        <time>2015-03-21T13:54:53Z</time>
      </trkpt>
      <trkpt lat="43.75081" lon="3.71992">
        <ele>272.39096</ele>
        <time>2015-03-21T13:54:58Z</time>
      </trkpt>
      <trkpt lat="43.75083" lon="3.72002">
        <ele>272.39096</ele>
        <time>2015-03-21T13:55:03Z</time>
      </trkpt>
      <trkpt lat="43.75084" lon="3.72012">
        <ele>273.05322</ele>
        <time>2015-03-21T13:55:08Z</time>
      </trkpt>
      <trkpt lat="43.75084" lon="3.72023">
        <ele>273.05322</ele>
        <time>2015-03-21T13:55:13Z</time>
      </trkpt>
      <trkpt lat="43.75085" lon="3.72037">
        <ele>273.65982</ele>
        <time>2015-03-21T13:55:18Z</time>
      </trkpt>
      <trkpt lat="43.75086" lon="3.72045">
        <ele>273.65982</ele>
        <time>2015-03-21T13:55:23Z</time>
      </trkpt>
      <trkpt lat="43.75086" lon="3.72053">
        <ele>274.22964</ele>
        <time>2015-03-21T13:55:28Z</time>
      </trkpt>
      <trkpt lat="43.75087" lon="3.7206">
        <ele>274.22964</ele>
        <time>2015-03-21T13:55:33Z</time>
      </trkpt>
      <trkpt lat="43.75089" lon="3.72067">
        <ele>274.7516</ele>
        <time>2015-03-21T13:55:38Z</time>
      </trkpt>
      <trkpt lat="43.7509" lon="3.72076">
        <ele>274.7516</ele>
        <time>2015-03-21T13:55:43Z</time>
      </trkpt>
      <trkpt lat="43.75091" lon="3.72085">
        <ele>275.2299</ele>
        <time>2015-03-21T13:55:48Z</time>
      </trkpt>
      <trkpt lat="43.75092" lon="3.72097">
        <ele>275.4958</ele>
        <time>2015-03-21T13:55:53Z</time>
      </trkpt>
      <trkpt lat="43.75094" lon="3.7211">
        <ele>275.65295</ele>
        <time>2015-03-21T13:55:58Z</time>
      </trkpt>
      <trkpt lat="43.75096" lon="3.7212">
        <ele>275.65295</ele>
        <time>2015-03-21T13:56:03Z</time>
      </trkpt>
      <trkpt lat="43.75098" lon="3.72127">
        <ele>275.75455</ele>
        <time>2015-03-21T13:56:08Z</time>
      </trkpt>
      <trkpt lat="43.75099" lon="3.72138">
        <ele>275.75455</ele>
        <time>2015-03-21T13:56:13Z</time>
      </trkpt>
      <trkpt lat="43.75102" lon="3.72147">
        <ele>275.85007</ele>
        <time>2015-03-21T13:56:18Z</time>
      </trkpt>
      <trkpt lat="43.75102" lon="3.72156">
        <ele>275.85007</ele>
        <time>2015-03-21T13:56:23Z</time>
      </trkpt>
      <trkpt lat="43.75104" lon="3.72163">
        <ele>275.98538</ele>
        <time>2015-03-21T13:56:28Z</time>
      </trkpt>
      <trkpt lat="43.75103" lon="3.72173">
        <ele>275.98538</ele>
        <time>2015-03-21T13:56:33Z</time>
      </trkpt>
      <trkpt lat="43.75105" lon="3.72178">
        <ele>276.2317</ele>
        <time>2015-03-21T13:56:38Z</time>
      </trkpt>
      <trkpt lat="43.75107" lon="3.72185">
        <ele>276.2317</ele>
        <time>2015-03-21T13:56:43Z</time>
      </trkpt>
      <trkpt lat="43.7511" lon="3.72195">
        <ele>276.51062</ele>
        <time>2015-03-21T13:56:48Z</time>
      </trkpt>
      <trkpt lat="43.75111" lon="3.72204">
        <ele>276.51062</ele>
        <time>2015-03-21T13:56:53Z</time>
      </trkpt>
      <trkpt lat="43.75114" lon="3.72211">
        <ele>276.82147</ele>
        <time>2015-03-21T13:56:58Z</time>
      </trkpt>
      <trkpt lat="43.75116" lon="3.72217">
        <ele>276.82147</ele>
        <time>2015-03-21T13:57:03Z</time>
      </trkpt>
      <trkpt lat="43.75117" lon="3.72223">
        <ele>277.1203</ele>
        <time>2015-03-21T13:57:08Z</time>
      </trkpt>
      <trkpt lat="43.75117" lon="3.72231">
        <ele>277.1203</ele>
        <time>2015-03-21T13:57:13Z</time>
      </trkpt>
      <trkpt lat="43.7512" lon="3.72241">
        <ele>277.48172</ele>
        <time>2015-03-21T13:57:18Z</time>
      </trkpt>
      <trkpt lat="43.75121" lon="3.72252">
        <ele>277.48172</ele>
        <time>2015-03-21T13:57:23Z</time>
      </trkpt>
      <trkpt lat="43.75121" lon="3.72267">
        <ele>277.84494</ele>
        <time>2015-03-21T13:57:28Z</time>
      </trkpt>
      <trkpt lat="43.75122" lon="3.7228">
        <ele>278.15363</ele>
        <time>2015-03-21T13:57:33Z</time>
      </trkpt>
      <trkpt lat="43.75124" lon="3.72289">
        <ele>278.15363</ele>
        <time>2015-03-21T13:57:38Z</time>
      </trkpt>
      <trkpt lat="43.75125" lon="3.72294">
        <ele>278.28366</ele>
        <time>2015-03-21T13:57:43Z</time>
      </trkpt>
      <trkpt lat="43.75127" lon="3.72302">
        <ele>278.28366</ele>
        <time>2015-03-21T13:57:48Z</time>
      </trkpt>
      <trkpt lat="43.75127" lon="3.72311">
        <ele>278.4088</ele>
        <time>2015-03-21T13:57:53Z</time>
      </trkpt>
      <trkpt lat="43.75127" lon="3.72318">
        <ele>278.4088</ele>
        <time>2015-03-21T13:57:58Z</time>
      </trkpt>
      <trkpt lat="43.75129" lon="3.72328">
        <ele>278.63232</ele>
        <time>2015-03-21T13:58:03Z</time>
      </trkpt>
      <trkpt lat="43.75132" lon="3.72335">
        <ele>278.63232</ele>
        <time>2015-03-21T13:58:08Z</time>
      </trkpt>
      <trkpt lat="43.75134" lon="3.72343">
        <ele>278.81903</ele>
        <time>2015-03-21T13:58:13Z</time>
      </trkpt>
      <trkpt lat="43.75136" lon="3.72353">
        <ele>278.81903</ele>
        <time>2015-03-21T13:58:18Z</time>
      </trkpt>
      <trkpt lat="43.75138" lon="3.72362">
        <ele>278.95908</ele>
        <time>2015-03-21T13:58:23Z</time>
      </trkpt>
      <trkpt lat="43.75139" lon="3.72371">
        <ele>278.95908</ele>
        <time>2015-03-21T13:58:28Z</time>
      </trkpt>
      <trkpt lat="43.75141" lon="3.72378">
        <ele>279.07217</ele>
        <time>2015-03-21T13:58:33Z</time>
      </trkpt>
      <trkpt lat="43.75148" lon="3.72418">
        <ele>278.48495</ele>
        <time>2015-03-21T13:58:57Z</time>
      </trkpt>
      <trkpt lat="43.75147" lon="3.7242">
        <ele>278.48495</ele>
        <time>2015-03-21T13:58:58Z</time>
      </trkpt>
      <trkpt lat="43.75149" lon="3.72443">
        <ele>277.29596</ele>
        <time>2015-03-21T13:59:12Z</time>
      </trkpt>
      <trkpt lat="43.75146" lon="3.72472">
        <ele>275.69904</ele>
        <time>2015-03-21T13:59:34Z</time>
      </trkpt>
      <trkpt lat="43.75153" lon="3.72507">
        <ele>274.07657</ele>
        <time>2015-03-21T13:59:53Z</time>
      </trkpt>
      <trkpt lat="43.75154" lon="3.72516">
        <ele>274.07657</ele>
        <time>2015-03-21T14:00:00Z</time>
      </trkpt>
      <trkpt lat="43.75152" lon="3.72538">
        <ele>272.4226</ele>
        <time>2015-03-21T14:00:20Z</time>
      </trkpt>
    </trkseg>
  </trk>
</gpx>